<?xml version="1.0" encoding="UTF-8" standalone="no" ?>
<gpx xmlns="http://www.topografix.com/GPX/1/1" xmlns:xsi="http://www.w3.org/2001/XMLSchema-instance" xsi:schemaLocation="http://www.topografix.com/GPX/1/1 http://www.topografix.com/GPX/1/1/gpx.xsd" version="1.1" creator="VisuGPX - https://www.visugpx.com">
  <metadata>
    <name>Le rif du Sap- Aiguille de Saffre par le refuge bivouac et le col de Challance</name>
  </metadata>
  <trk>
    <name><![CDATA[Le rif du Sap- Aiguille de Saffre par le refuge bivouac et le col de Challance_1]]></name>
    <trkseg>
      <trkpt lat="44.82695" lon="6.26141">
        <ele>1445.48</ele>
        <time>2016-09-08T13:52:21Z</time>
      </trkpt>
      <trkpt lat="44.82695" lon="6.26141">
        <ele>1445.48</ele>
        <time>2016-09-08T13:52:21Z</time>
      </trkpt>
      <trkpt lat="44.82695" lon="6.26141">
        <ele>1445.48</ele>
        <time>2016-09-08T13:52:21Z</time>
      </trkpt>
      <trkpt lat="44.82692" lon="6.26142">
        <ele>1443.08</ele>
        <time>2016-09-08T13:52:34Z</time>
      </trkpt>
      <trkpt lat="44.82688" lon="6.26133">
        <ele>1440.67</ele>
        <time>2016-09-08T13:52:47Z</time>
      </trkpt>
      <trkpt lat="44.82683" lon="6.26123">
        <ele>1439.71</ele>
        <time>2016-09-08T13:53:02Z</time>
      </trkpt>
      <trkpt lat="44.82685" lon="6.26124">
        <ele>1439.23</ele>
        <time>2016-09-08T13:53:19Z</time>
      </trkpt>
      <trkpt lat="44.82685" lon="6.26125">
        <ele>1438.75</ele>
        <time>2016-09-08T13:53:38Z</time>
      </trkpt>
      <trkpt lat="44.82684" lon="6.26121">
        <ele>1438.27</ele>
        <time>2016-09-08T13:54:09Z</time>
      </trkpt>
      <trkpt lat="44.82684" lon="6.26126">
        <ele>1432.02</ele>
        <time>2016-09-08T13:54:33Z</time>
      </trkpt>
      <trkpt lat="44.82684" lon="6.26126">
        <ele>1440.67</ele>
        <time>2016-09-08T13:54:34Z</time>
      </trkpt>
      <trkpt lat="44.82684" lon="6.26126">
        <ele>1437.31</ele>
        <time>2016-09-08T13:54:36Z</time>
      </trkpt>
      <trkpt lat="44.82683" lon="6.26126">
        <ele>1443.08</ele>
        <time>2016-09-08T13:54:39Z</time>
      </trkpt>
      <trkpt lat="44.82683" lon="6.26125">
        <ele>1437.31</ele>
        <time>2016-09-08T13:54:40Z</time>
      </trkpt>
      <trkpt lat="44.82684" lon="6.26125">
        <ele>1434.42</ele>
        <time>2016-09-08T13:54:42Z</time>
      </trkpt>
      <trkpt lat="44.82684" lon="6.26125">
        <ele>1434.42</ele>
        <time>2016-09-08T13:54:43Z</time>
      </trkpt>
      <trkpt lat="44.82685" lon="6.26125">
        <ele>1444.04</ele>
        <time>2016-09-08T13:54:44Z</time>
      </trkpt>
      <trkpt lat="44.82685" lon="6.26125">
        <ele>1440.19</ele>
        <time>2016-09-08T13:54:45Z</time>
      </trkpt>
      <trkpt lat="44.82685" lon="6.26126">
        <ele>1438.75</ele>
        <time>2016-09-08T13:54:47Z</time>
      </trkpt>
      <trkpt lat="44.82691" lon="6.26124">
        <ele>1439.23</ele>
        <time>2016-09-08T13:55:13Z</time>
      </trkpt>
      <trkpt lat="44.82686" lon="6.26123">
        <ele>1438.27</ele>
        <time>2016-09-08T13:55:43Z</time>
      </trkpt>
      <trkpt lat="44.82682" lon="6.26123">
        <ele>1438.27</ele>
        <time>2016-09-08T13:56:13Z</time>
      </trkpt>
      <trkpt lat="44.8268" lon="6.26124">
        <ele>1438.75</ele>
        <time>2016-09-08T13:56:37Z</time>
      </trkpt>
      <trkpt lat="44.82681" lon="6.26121">
        <ele>1437.79</ele>
        <time>2016-09-08T13:57:05Z</time>
      </trkpt>
      <trkpt lat="44.82682" lon="6.26121">
        <ele>1433.94</ele>
        <time>2016-09-08T13:57:09Z</time>
      </trkpt>
      <trkpt lat="44.82682" lon="6.26121">
        <ele>1433.94</ele>
        <time>2016-09-08T13:57:10Z</time>
      </trkpt>
      <trkpt lat="44.82683" lon="6.26121">
        <ele>1439.23</ele>
        <time>2016-09-08T13:57:14Z</time>
      </trkpt>
      <trkpt lat="44.82683" lon="6.26121">
        <ele>1438.75</ele>
        <time>2016-09-08T13:57:15Z</time>
      </trkpt>
      <trkpt lat="44.82682" lon="6.2612">
        <ele>1443.08</ele>
        <time>2016-09-08T13:57:24Z</time>
      </trkpt>
      <trkpt lat="44.82682" lon="6.26121">
        <ele>1438.75</ele>
        <time>2016-09-08T13:57:25Z</time>
      </trkpt>
      <trkpt lat="44.82682" lon="6.26122">
        <ele>1438.27</ele>
        <time>2016-09-08T13:57:27Z</time>
      </trkpt>
      <trkpt lat="44.82684" lon="6.26127">
        <ele>1438.75</ele>
        <time>2016-09-08T13:58:12Z</time>
      </trkpt>
      <trkpt lat="44.82685" lon="6.26123">
        <ele>1438.75</ele>
        <time>2016-09-08T13:58:49Z</time>
      </trkpt>
      <trkpt lat="44.82685" lon="6.26121">
        <ele>1438.27</ele>
        <time>2016-09-08T13:59:13Z</time>
      </trkpt>
      <trkpt lat="44.82683" lon="6.26118">
        <ele>1437.79</ele>
        <time>2016-09-08T13:59:43Z</time>
      </trkpt>
      <trkpt lat="44.82683" lon="6.26119">
        <ele>1437.79</ele>
        <time>2016-09-08T13:59:46Z</time>
      </trkpt>
      <trkpt lat="44.82683" lon="6.2612">
        <ele>1389.72</ele>
        <time>2016-09-08T06:26:31Z</time>
      </trkpt>
      <trkpt lat="44.82683" lon="6.2612">
        <ele>1389.72</ele>
        <time>2016-09-08T06:26:31Z</time>
      </trkpt>
      <trkpt lat="44.82683" lon="6.2612">
        <ele>1390.68</ele>
        <time>2016-09-08T06:26:32Z</time>
      </trkpt>
      <trkpt lat="44.82683" lon="6.2612">
        <ele>1390.68</ele>
        <time>2016-09-08T06:26:33Z</time>
      </trkpt>
      <trkpt lat="44.82683" lon="6.26121">
        <ele>1394.53</ele>
        <time>2016-09-08T06:26:37Z</time>
      </trkpt>
      <trkpt lat="44.82683" lon="6.26121">
        <ele>1397.89</ele>
        <time>2016-09-08T06:26:41Z</time>
      </trkpt>
      <trkpt lat="44.82683" lon="6.26123">
        <ele>1401.74</ele>
        <time>2016-09-08T06:26:46Z</time>
      </trkpt>
      <trkpt lat="44.82683" lon="6.26123">
        <ele>1405.1</ele>
        <time>2016-09-08T06:26:52Z</time>
      </trkpt>
      <trkpt lat="44.82683" lon="6.26124">
        <ele>1408.95</ele>
        <time>2016-09-08T06:26:59Z</time>
      </trkpt>
      <trkpt lat="44.82683" lon="6.26124">
        <ele>1408.95</ele>
        <time>2016-09-08T06:27:00Z</time>
      </trkpt>
      <trkpt lat="44.82682" lon="6.26121">
        <ele>1412.79</ele>
        <time>2016-09-08T06:27:09Z</time>
      </trkpt>
      <trkpt lat="44.82682" lon="6.26121">
        <ele>1416.16</ele>
        <time>2016-09-08T06:27:20Z</time>
      </trkpt>
      <trkpt lat="44.82681" lon="6.26123">
        <ele>1419.04</ele>
        <time>2016-09-08T06:27:34Z</time>
      </trkpt>
      <trkpt lat="44.82679" lon="6.26125">
        <ele>1422.41</ele>
        <time>2016-09-08T06:27:52Z</time>
      </trkpt>
      <trkpt lat="44.82681" lon="6.26124">
        <ele>1423.37</ele>
        <time>2016-09-08T06:28:12Z</time>
      </trkpt>
      <trkpt lat="44.82687" lon="6.2613">
        <ele>1423.85</ele>
        <time>2016-09-08T06:28:27Z</time>
      </trkpt>
      <trkpt lat="44.82689" lon="6.2613">
        <ele>1423.85</ele>
        <time>2016-09-08T06:28:38Z</time>
      </trkpt>
      <trkpt lat="44.82686" lon="6.26129">
        <ele>1423.85</ele>
        <time>2016-09-08T06:28:53Z</time>
      </trkpt>
      <trkpt lat="44.82687" lon="6.26126">
        <ele>1423.85</ele>
        <time>2016-09-08T06:29:16Z</time>
      </trkpt>
      <trkpt lat="44.82688" lon="6.26124">
        <ele>1423.85</ele>
        <time>2016-09-08T06:29:46Z</time>
      </trkpt>
      <trkpt lat="44.82687" lon="6.26126">
        <ele>1423.85</ele>
        <time>2016-09-08T06:30:13Z</time>
      </trkpt>
      <trkpt lat="44.82689" lon="6.2613">
        <ele>1424.33</ele>
        <time>2016-09-08T06:30:39Z</time>
      </trkpt>
      <trkpt lat="44.8269" lon="6.26131">
        <ele>1429.62</ele>
        <time>2016-09-08T06:30:46Z</time>
      </trkpt>
      <trkpt lat="44.82689" lon="6.26132">
        <ele>1429.14</ele>
        <time>2016-09-08T06:31:12Z</time>
      </trkpt>
      <trkpt lat="44.82688" lon="6.26133">
        <ele>1429.62</ele>
        <time>2016-09-08T06:31:34Z</time>
      </trkpt>
      <trkpt lat="44.82687" lon="6.26133">
        <ele>1429.62</ele>
        <time>2016-09-08T06:31:53Z</time>
      </trkpt>
      <trkpt lat="44.82689" lon="6.26138">
        <ele>1430.1</ele>
        <time>2016-09-08T06:32:14Z</time>
      </trkpt>
      <trkpt lat="44.82691" lon="6.26135">
        <ele>1432.5</ele>
        <time>2016-09-08T06:32:28Z</time>
      </trkpt>
      <trkpt lat="44.82696" lon="6.26142">
        <ele>1434.42</ele>
        <time>2016-09-08T06:32:41Z</time>
      </trkpt>
      <trkpt lat="44.82703" lon="6.26152">
        <ele>1436.35</ele>
        <time>2016-09-08T06:32:58Z</time>
      </trkpt>
      <trkpt lat="44.82708" lon="6.2616">
        <ele>1438.75</ele>
        <time>2016-09-08T06:33:13Z</time>
      </trkpt>
      <trkpt lat="44.82708" lon="6.26155">
        <ele>1438.75</ele>
        <time>2016-09-08T06:33:42Z</time>
      </trkpt>
      <trkpt lat="44.82707" lon="6.26156">
        <ele>1438.75</ele>
        <time>2016-09-08T06:34:06Z</time>
      </trkpt>
      <trkpt lat="44.82711" lon="6.26169">
        <ele>1439.71</ele>
        <time>2016-09-08T06:34:21Z</time>
      </trkpt>
      <trkpt lat="44.8272" lon="6.2618">
        <ele>1440.19</ele>
        <time>2016-09-08T06:34:36Z</time>
      </trkpt>
      <trkpt lat="44.82725" lon="6.26177">
        <ele>1442.11</ele>
        <time>2016-09-08T06:34:50Z</time>
      </trkpt>
      <trkpt lat="44.82732" lon="6.26178">
        <ele>1445</ele>
        <time>2016-09-08T06:35:04Z</time>
      </trkpt>
      <trkpt lat="44.82741" lon="6.26185">
        <ele>1446.92</ele>
        <time>2016-09-08T06:35:20Z</time>
      </trkpt>
      <trkpt lat="44.82748" lon="6.26193">
        <ele>1449.81</ele>
        <time>2016-09-08T06:35:36Z</time>
      </trkpt>
      <trkpt lat="44.82751" lon="6.26191">
        <ele>1452.21</ele>
        <time>2016-09-08T06:35:52Z</time>
      </trkpt>
      <trkpt lat="44.82752" lon="6.26177">
        <ele>1454.13</ele>
        <time>2016-09-08T06:36:06Z</time>
      </trkpt>
      <trkpt lat="44.82752" lon="6.26163">
        <ele>1456.05</ele>
        <time>2016-09-08T06:36:21Z</time>
      </trkpt>
      <trkpt lat="44.82754" lon="6.26151">
        <ele>1457.98</ele>
        <time>2016-09-08T06:36:36Z</time>
      </trkpt>
      <trkpt lat="44.82762" lon="6.26163">
        <ele>1460.38</ele>
        <time>2016-09-08T06:36:51Z</time>
      </trkpt>
      <trkpt lat="44.82768" lon="6.26171">
        <ele>1462.3</ele>
        <time>2016-09-08T06:37:06Z</time>
      </trkpt>
      <trkpt lat="44.82773" lon="6.26182">
        <ele>1464.71</ele>
        <time>2016-09-08T06:37:22Z</time>
      </trkpt>
      <trkpt lat="44.82778" lon="6.26187">
        <ele>1467.11</ele>
        <time>2016-09-08T06:37:35Z</time>
      </trkpt>
      <trkpt lat="44.82781" lon="6.26191">
        <ele>1469.03</ele>
        <time>2016-09-08T06:37:49Z</time>
      </trkpt>
      <trkpt lat="44.82784" lon="6.26186">
        <ele>1469.51</ele>
        <time>2016-09-08T06:38:08Z</time>
      </trkpt>
      <trkpt lat="44.82787" lon="6.26178">
        <ele>1471.92</ele>
        <time>2016-09-08T06:38:22Z</time>
      </trkpt>
      <trkpt lat="44.82788" lon="6.26166">
        <ele>1473.36</ele>
        <time>2016-09-08T06:38:32Z</time>
      </trkpt>
      <trkpt lat="44.82791" lon="6.26156">
        <ele>1474.8</ele>
        <time>2016-09-08T06:38:44Z</time>
      </trkpt>
      <trkpt lat="44.82799" lon="6.26143">
        <ele>1477.2</ele>
        <time>2016-09-08T06:39:01Z</time>
      </trkpt>
      <trkpt lat="44.82806" lon="6.26135">
        <ele>1479.13</ele>
        <time>2016-09-08T06:39:16Z</time>
      </trkpt>
      <trkpt lat="44.82815" lon="6.26134">
        <ele>1481.05</ele>
        <time>2016-09-08T06:39:30Z</time>
      </trkpt>
      <trkpt lat="44.82825" lon="6.2613">
        <ele>1483.45</ele>
        <time>2016-09-08T06:39:48Z</time>
      </trkpt>
      <trkpt lat="44.82835" lon="6.26124">
        <ele>1485.37</ele>
        <time>2016-09-08T06:40:05Z</time>
      </trkpt>
      <trkpt lat="44.82846" lon="6.2612">
        <ele>1487.3</ele>
        <time>2016-09-08T06:40:21Z</time>
      </trkpt>
      <trkpt lat="44.82855" lon="6.26114">
        <ele>1489.22</ele>
        <time>2016-09-08T06:40:37Z</time>
      </trkpt>
      <trkpt lat="44.82862" lon="6.26102">
        <ele>1491.62</ele>
        <time>2016-09-08T06:40:53Z</time>
      </trkpt>
      <trkpt lat="44.82865" lon="6.26114">
        <ele>1493.55</ele>
        <time>2016-09-08T06:41:06Z</time>
      </trkpt>
      <trkpt lat="44.82864" lon="6.26129">
        <ele>1495.47</ele>
        <time>2016-09-08T06:41:21Z</time>
      </trkpt>
      <trkpt lat="44.82866" lon="6.26131">
        <ele>1497.39</ele>
        <time>2016-09-08T06:41:35Z</time>
      </trkpt>
      <trkpt lat="44.82873" lon="6.26123">
        <ele>1498.83</ele>
        <time>2016-09-08T06:41:46Z</time>
      </trkpt>
      <trkpt lat="44.82878" lon="6.2613">
        <ele>1501.24</ele>
        <time>2016-09-08T06:42:00Z</time>
      </trkpt>
      <trkpt lat="44.8288" lon="6.26144">
        <ele>1503.16</ele>
        <time>2016-09-08T06:42:15Z</time>
      </trkpt>
      <trkpt lat="44.82879" lon="6.26157">
        <ele>1505.56</ele>
        <time>2016-09-08T06:42:29Z</time>
      </trkpt>
      <trkpt lat="44.82887" lon="6.26166">
        <ele>1507</ele>
        <time>2016-09-08T06:42:44Z</time>
      </trkpt>
      <trkpt lat="44.82893" lon="6.26172">
        <ele>1508.45</ele>
        <time>2016-09-08T06:42:57Z</time>
      </trkpt>
      <trkpt lat="44.82895" lon="6.26158">
        <ele>1510.85</ele>
        <time>2016-09-08T06:43:10Z</time>
      </trkpt>
      <trkpt lat="44.82902" lon="6.26146">
        <ele>1513.25</ele>
        <time>2016-09-08T06:43:26Z</time>
      </trkpt>
      <trkpt lat="44.82907" lon="6.26137">
        <ele>1514.69</ele>
        <time>2016-09-08T06:43:36Z</time>
      </trkpt>
      <trkpt lat="44.82915" lon="6.26127">
        <ele>1516.62</ele>
        <time>2016-09-08T06:43:51Z</time>
      </trkpt>
      <trkpt lat="44.82922" lon="6.26117">
        <ele>1518.54</ele>
        <time>2016-09-08T06:44:05Z</time>
      </trkpt>
      <trkpt lat="44.82926" lon="6.26121">
        <ele>1520.46</ele>
        <time>2016-09-08T06:44:18Z</time>
      </trkpt>
      <trkpt lat="44.82926" lon="6.26127">
        <ele>1520.94</ele>
        <time>2016-09-08T06:44:24Z</time>
      </trkpt>
      <trkpt lat="44.82925" lon="6.26145">
        <ele>1523.35</ele>
        <time>2016-09-08T06:44:39Z</time>
      </trkpt>
      <trkpt lat="44.82927" lon="6.26149">
        <ele>1523.83</ele>
        <time>2016-09-08T06:44:43Z</time>
      </trkpt>
      <trkpt lat="44.82936" lon="6.26154">
        <ele>1525.27</ele>
        <time>2016-09-08T06:44:59Z</time>
      </trkpt>
      <trkpt lat="44.82944" lon="6.26165">
        <ele>1527.19</ele>
        <time>2016-09-08T06:45:15Z</time>
      </trkpt>
      <trkpt lat="44.82945" lon="6.26159">
        <ele>1527.67</ele>
        <time>2016-09-08T06:45:21Z</time>
      </trkpt>
      <trkpt lat="44.82941" lon="6.26144">
        <ele>1529.11</ele>
        <time>2016-09-08T06:45:36Z</time>
      </trkpt>
      <trkpt lat="44.82938" lon="6.26129">
        <ele>1531.04</ele>
        <time>2016-09-08T06:45:52Z</time>
      </trkpt>
      <trkpt lat="44.82941" lon="6.26116">
        <ele>1533.44</ele>
        <time>2016-09-08T06:46:06Z</time>
      </trkpt>
      <trkpt lat="44.82946" lon="6.26098">
        <ele>1536.32</ele>
        <time>2016-09-08T06:46:23Z</time>
      </trkpt>
      <trkpt lat="44.82949" lon="6.26085">
        <ele>1538.73</ele>
        <time>2016-09-08T06:46:38Z</time>
      </trkpt>
      <trkpt lat="44.82947" lon="6.26073">
        <ele>1539.69</ele>
        <time>2016-09-08T06:46:53Z</time>
      </trkpt>
      <trkpt lat="44.82948" lon="6.26063">
        <ele>1541.13</ele>
        <time>2016-09-08T06:47:05Z</time>
      </trkpt>
      <trkpt lat="44.82952" lon="6.26058">
        <ele>1541.61</ele>
        <time>2016-09-08T06:47:27Z</time>
      </trkpt>
      <trkpt lat="44.82955" lon="6.26069">
        <ele>1540.65</ele>
        <time>2016-09-08T06:47:38Z</time>
      </trkpt>
      <trkpt lat="44.82954" lon="6.26066">
        <ele>1540.65</ele>
        <time>2016-09-08T06:47:54Z</time>
      </trkpt>
      <trkpt lat="44.82953" lon="6.26062">
        <ele>1541.13</ele>
        <time>2016-09-08T06:48:05Z</time>
      </trkpt>
      <trkpt lat="44.82952" lon="6.26062">
        <ele>1541.61</ele>
        <time>2016-09-08T06:48:20Z</time>
      </trkpt>
      <trkpt lat="44.82957" lon="6.2606">
        <ele>1541.13</ele>
        <time>2016-09-08T06:49:50Z</time>
      </trkpt>
      <trkpt lat="44.82953" lon="6.26051">
        <ele>1540.17</ele>
        <time>2016-09-08T06:50:03Z</time>
      </trkpt>
      <trkpt lat="44.82949" lon="6.26043">
        <ele>1542.57</ele>
        <time>2016-09-08T06:50:18Z</time>
      </trkpt>
      <trkpt lat="44.82944" lon="6.26039">
        <ele>1544.01</ele>
        <time>2016-09-08T06:50:27Z</time>
      </trkpt>
      <trkpt lat="44.82935" lon="6.26033">
        <ele>1546.42</ele>
        <time>2016-09-08T06:50:45Z</time>
      </trkpt>
      <trkpt lat="44.82925" lon="6.26026">
        <ele>1548.82</ele>
        <time>2016-09-08T06:51:01Z</time>
      </trkpt>
      <trkpt lat="44.82938" lon="6.26022">
        <ele>1550.26</ele>
        <time>2016-09-08T06:51:16Z</time>
      </trkpt>
      <trkpt lat="44.8295" lon="6.2602">
        <ele>1552.67</ele>
        <time>2016-09-08T06:51:33Z</time>
      </trkpt>
      <trkpt lat="44.82955" lon="6.2602">
        <ele>1553.63</ele>
        <time>2016-09-08T06:51:40Z</time>
      </trkpt>
      <trkpt lat="44.82952" lon="6.26021">
        <ele>1555.07</ele>
        <time>2016-09-08T06:51:58Z</time>
      </trkpt>
      <trkpt lat="44.8294" lon="6.26015">
        <ele>1557.95</ele>
        <time>2016-09-08T06:52:16Z</time>
      </trkpt>
      <trkpt lat="44.82928" lon="6.26013">
        <ele>1560.36</ele>
        <time>2016-09-08T06:52:33Z</time>
      </trkpt>
      <trkpt lat="44.8292" lon="6.26002">
        <ele>1562.76</ele>
        <time>2016-09-08T06:52:47Z</time>
      </trkpt>
      <trkpt lat="44.82917" lon="6.25986">
        <ele>1564.2</ele>
        <time>2016-09-08T06:53:02Z</time>
      </trkpt>
      <trkpt lat="44.82916" lon="6.25969">
        <ele>1566.61</ele>
        <time>2016-09-08T06:53:19Z</time>
      </trkpt>
      <trkpt lat="44.82915" lon="6.25953">
        <ele>1569.49</ele>
        <time>2016-09-08T06:53:36Z</time>
      </trkpt>
      <trkpt lat="44.82915" lon="6.25939">
        <ele>1571.41</ele>
        <time>2016-09-08T06:53:51Z</time>
      </trkpt>
      <trkpt lat="44.82918" lon="6.25931">
        <ele>1573.82</ele>
        <time>2016-09-08T06:54:07Z</time>
      </trkpt>
      <trkpt lat="44.82924" lon="6.2595">
        <ele>1575.26</ele>
        <time>2016-09-08T06:54:23Z</time>
      </trkpt>
      <trkpt lat="44.82926" lon="6.25952">
        <ele>1577.18</ele>
        <time>2016-09-08T06:54:38Z</time>
      </trkpt>
      <trkpt lat="44.82924" lon="6.25934">
        <ele>1579.58</ele>
        <time>2016-09-08T06:54:54Z</time>
      </trkpt>
      <trkpt lat="44.82925" lon="6.25923">
        <ele>1581.51</ele>
        <time>2016-09-08T06:55:09Z</time>
      </trkpt>
      <trkpt lat="44.8292" lon="6.2591">
        <ele>1582.95</ele>
        <time>2016-09-08T06:55:25Z</time>
      </trkpt>
      <trkpt lat="44.82921" lon="6.25899">
        <ele>1584.87</ele>
        <time>2016-09-08T06:55:41Z</time>
      </trkpt>
      <trkpt lat="44.82918" lon="6.25884">
        <ele>1587.27</ele>
        <time>2016-09-08T06:55:58Z</time>
      </trkpt>
      <trkpt lat="44.82917" lon="6.25868">
        <ele>1589.68</ele>
        <time>2016-09-08T06:56:14Z</time>
      </trkpt>
      <trkpt lat="44.82909" lon="6.25852">
        <ele>1592.56</ele>
        <time>2016-09-08T06:56:34Z</time>
      </trkpt>
      <trkpt lat="44.82905" lon="6.25836">
        <ele>1594.48</ele>
        <time>2016-09-08T06:56:50Z</time>
      </trkpt>
      <trkpt lat="44.8291" lon="6.25825">
        <ele>1596.41</ele>
        <time>2016-09-08T06:57:03Z</time>
      </trkpt>
      <trkpt lat="44.82914" lon="6.25812">
        <ele>1598.33</ele>
        <time>2016-09-08T06:57:17Z</time>
      </trkpt>
      <trkpt lat="44.82914" lon="6.2581">
        <ele>1598.33</ele>
        <time>2016-09-08T06:57:19Z</time>
      </trkpt>
      <trkpt lat="44.82917" lon="6.25794">
        <ele>1601.21</ele>
        <time>2016-09-08T06:57:35Z</time>
      </trkpt>
      <trkpt lat="44.82921" lon="6.25807">
        <ele>1602.66</ele>
        <time>2016-09-08T06:57:46Z</time>
      </trkpt>
      <trkpt lat="44.8292" lon="6.25809">
        <ele>1604.58</ele>
        <time>2016-09-08T06:58:00Z</time>
      </trkpt>
      <trkpt lat="44.82921" lon="6.25807">
        <ele>1604.58</ele>
        <time>2016-09-08T06:58:02Z</time>
      </trkpt>
      <trkpt lat="44.82922" lon="6.25803">
        <ele>1605.06</ele>
        <time>2016-09-08T06:58:05Z</time>
      </trkpt>
      <trkpt lat="44.82924" lon="6.25788">
        <ele>1606.98</ele>
        <time>2016-09-08T06:58:19Z</time>
      </trkpt>
      <trkpt lat="44.82929" lon="6.25774">
        <ele>1608.9</ele>
        <time>2016-09-08T06:58:33Z</time>
      </trkpt>
      <trkpt lat="44.82934" lon="6.25759">
        <ele>1610.35</ele>
        <time>2016-09-08T06:58:47Z</time>
      </trkpt>
      <trkpt lat="44.82937" lon="6.2575">
        <ele>1612.27</ele>
        <time>2016-09-08T06:58:59Z</time>
      </trkpt>
      <trkpt lat="44.82935" lon="6.2574">
        <ele>1613.71</ele>
        <time>2016-09-08T06:59:12Z</time>
      </trkpt>
      <trkpt lat="44.82936" lon="6.25729">
        <ele>1616.59</ele>
        <time>2016-09-08T06:59:27Z</time>
      </trkpt>
      <trkpt lat="44.82938" lon="6.25717">
        <ele>1618.52</ele>
        <time>2016-09-08T06:59:42Z</time>
      </trkpt>
      <trkpt lat="44.82943" lon="6.25703">
        <ele>1620.92</ele>
        <time>2016-09-08T06:59:57Z</time>
      </trkpt>
      <trkpt lat="44.82948" lon="6.25693">
        <ele>1623.32</ele>
        <time>2016-09-08T07:00:12Z</time>
      </trkpt>
      <trkpt lat="44.82951" lon="6.257">
        <ele>1624.77</ele>
        <time>2016-09-08T07:00:26Z</time>
      </trkpt>
      <trkpt lat="44.82952" lon="6.25712">
        <ele>1627.17</ele>
        <time>2016-09-08T07:00:42Z</time>
      </trkpt>
      <trkpt lat="44.82953" lon="6.25713">
        <ele>1629.09</ele>
        <time>2016-09-08T07:00:56Z</time>
      </trkpt>
      <trkpt lat="44.82955" lon="6.25702">
        <ele>1631.49</ele>
        <time>2016-09-08T07:01:10Z</time>
      </trkpt>
      <trkpt lat="44.8296" lon="6.2569">
        <ele>1632.94</ele>
        <time>2016-09-08T07:01:25Z</time>
      </trkpt>
      <trkpt lat="44.82963" lon="6.25679">
        <ele>1635.34</ele>
        <time>2016-09-08T07:01:39Z</time>
      </trkpt>
      <trkpt lat="44.82965" lon="6.25669">
        <ele>1637.26</ele>
        <time>2016-09-08T07:01:53Z</time>
      </trkpt>
      <trkpt lat="44.82969" lon="6.25682">
        <ele>1639.19</ele>
        <time>2016-09-08T07:02:06Z</time>
      </trkpt>
      <trkpt lat="44.82968" lon="6.25696">
        <ele>1640.63</ele>
        <time>2016-09-08T07:02:23Z</time>
      </trkpt>
      <trkpt lat="44.82972" lon="6.25685">
        <ele>1642.55</ele>
        <time>2016-09-08T07:02:34Z</time>
      </trkpt>
      <trkpt lat="44.82972" lon="6.25671">
        <ele>1644.47</ele>
        <time>2016-09-08T07:02:48Z</time>
      </trkpt>
      <trkpt lat="44.82975" lon="6.25657">
        <ele>1646.4</ele>
        <time>2016-09-08T07:03:03Z</time>
      </trkpt>
      <trkpt lat="44.82978" lon="6.25645">
        <ele>1648.8</ele>
        <time>2016-09-08T07:03:18Z</time>
      </trkpt>
      <trkpt lat="44.82977" lon="6.25634">
        <ele>1651.2</ele>
        <time>2016-09-08T07:03:34Z</time>
      </trkpt>
      <trkpt lat="44.82981" lon="6.25625">
        <ele>1652.64</ele>
        <time>2016-09-08T07:03:49Z</time>
      </trkpt>
      <trkpt lat="44.82989" lon="6.25641">
        <ele>1654.57</ele>
        <time>2016-09-08T07:04:04Z</time>
      </trkpt>
      <trkpt lat="44.82991" lon="6.25652">
        <ele>1656.01</ele>
        <time>2016-09-08T07:04:18Z</time>
      </trkpt>
      <trkpt lat="44.82991" lon="6.25653">
        <ele>1656.01</ele>
        <time>2016-09-08T07:04:19Z</time>
      </trkpt>
      <trkpt lat="44.82991" lon="6.25653">
        <ele>1657.45</ele>
        <time>2016-09-08T07:04:33Z</time>
      </trkpt>
      <trkpt lat="44.82992" lon="6.25644">
        <ele>1658.89</ele>
        <time>2016-09-08T07:04:45Z</time>
      </trkpt>
      <trkpt lat="44.82988" lon="6.25631">
        <ele>1661.3</ele>
        <time>2016-09-08T07:05:00Z</time>
      </trkpt>
      <trkpt lat="44.82989" lon="6.25613">
        <ele>1663.7</ele>
        <time>2016-09-08T07:05:19Z</time>
      </trkpt>
      <trkpt lat="44.82991" lon="6.25598">
        <ele>1666.58</ele>
        <time>2016-09-08T07:05:36Z</time>
      </trkpt>
      <trkpt lat="44.82994" lon="6.25589">
        <ele>1668.51</ele>
        <time>2016-09-08T07:05:51Z</time>
      </trkpt>
      <trkpt lat="44.83001" lon="6.25602">
        <ele>1671.39</ele>
        <time>2016-09-08T07:06:07Z</time>
      </trkpt>
      <trkpt lat="44.83007" lon="6.25614">
        <ele>1673.79</ele>
        <time>2016-09-08T07:06:24Z</time>
      </trkpt>
      <trkpt lat="44.83012" lon="6.25627">
        <ele>1676.68</ele>
        <time>2016-09-08T07:06:44Z</time>
      </trkpt>
      <trkpt lat="44.83008" lon="6.25612">
        <ele>1678.6</ele>
        <time>2016-09-08T07:07:00Z</time>
      </trkpt>
      <trkpt lat="44.83012" lon="6.25597">
        <ele>1680.52</ele>
        <time>2016-09-08T07:07:17Z</time>
      </trkpt>
      <trkpt lat="44.83011" lon="6.2558">
        <ele>1682.93</ele>
        <time>2016-09-08T07:07:33Z</time>
      </trkpt>
      <trkpt lat="44.83014" lon="6.25584">
        <ele>1684.85</ele>
        <time>2016-09-08T07:07:47Z</time>
      </trkpt>
      <trkpt lat="44.83019" lon="6.25599">
        <ele>1685.81</ele>
        <time>2016-09-08T07:08:01Z</time>
      </trkpt>
      <trkpt lat="44.83022" lon="6.25609">
        <ele>1687.73</ele>
        <time>2016-09-08T07:08:15Z</time>
      </trkpt>
      <trkpt lat="44.83028" lon="6.25622">
        <ele>1689.65</ele>
        <time>2016-09-08T07:08:31Z</time>
      </trkpt>
      <trkpt lat="44.83032" lon="6.25629">
        <ele>1692.54</ele>
        <time>2016-09-08T07:08:49Z</time>
      </trkpt>
      <trkpt lat="44.83029" lon="6.25613">
        <ele>1694.46</ele>
        <time>2016-09-08T07:09:05Z</time>
      </trkpt>
      <trkpt lat="44.83028" lon="6.25596">
        <ele>1696.86</ele>
        <time>2016-09-08T07:09:23Z</time>
      </trkpt>
      <trkpt lat="44.8303" lon="6.25583">
        <ele>1699.27</ele>
        <time>2016-09-08T07:09:37Z</time>
      </trkpt>
      <trkpt lat="44.83035" lon="6.25567">
        <ele>1700.71</ele>
        <time>2016-09-08T07:09:53Z</time>
      </trkpt>
      <trkpt lat="44.83036" lon="6.25563">
        <ele>1701.67</ele>
        <time>2016-09-08T07:09:56Z</time>
      </trkpt>
      <trkpt lat="44.83039" lon="6.25551">
        <ele>1703.59</ele>
        <time>2016-09-08T07:10:11Z</time>
      </trkpt>
      <trkpt lat="44.83035" lon="6.25534">
        <ele>1705.04</ele>
        <time>2016-09-08T07:10:29Z</time>
      </trkpt>
      <trkpt lat="44.83034" lon="6.2552">
        <ele>1706.96</ele>
        <time>2016-09-08T07:10:45Z</time>
      </trkpt>
      <trkpt lat="44.83035" lon="6.25504">
        <ele>1709.36</ele>
        <time>2016-09-08T07:11:01Z</time>
      </trkpt>
      <trkpt lat="44.83032" lon="6.25491">
        <ele>1711.28</ele>
        <time>2016-09-08T07:11:18Z</time>
      </trkpt>
      <trkpt lat="44.83027" lon="6.25485">
        <ele>1713.21</ele>
        <time>2016-09-08T07:11:32Z</time>
      </trkpt>
      <trkpt lat="44.8302" lon="6.25471">
        <ele>1715.13</ele>
        <time>2016-09-08T07:11:48Z</time>
      </trkpt>
      <trkpt lat="44.83016" lon="6.25452">
        <ele>1718.01</ele>
        <time>2016-09-08T07:12:08Z</time>
      </trkpt>
      <trkpt lat="44.83009" lon="6.25438">
        <ele>1720.42</ele>
        <time>2016-09-08T07:12:25Z</time>
      </trkpt>
      <trkpt lat="44.83006" lon="6.25431">
        <ele>1723.3</ele>
        <time>2016-09-08T07:12:43Z</time>
      </trkpt>
      <trkpt lat="44.83017" lon="6.25436">
        <ele>1725.22</ele>
        <time>2016-09-08T07:12:58Z</time>
      </trkpt>
      <trkpt lat="44.83027" lon="6.25447">
        <ele>1727.15</ele>
        <time>2016-09-08T07:13:16Z</time>
      </trkpt>
      <trkpt lat="44.83022" lon="6.25434">
        <ele>1729.07</ele>
        <time>2016-09-08T07:13:30Z</time>
      </trkpt>
      <trkpt lat="44.83014" lon="6.25422">
        <ele>1730.99</ele>
        <time>2016-09-08T07:13:46Z</time>
      </trkpt>
      <trkpt lat="44.83006" lon="6.25414">
        <ele>1734.36</ele>
        <time>2016-09-08T07:14:03Z</time>
      </trkpt>
      <trkpt lat="44.82995" lon="6.25406">
        <ele>1736.28</ele>
        <time>2016-09-08T07:14:23Z</time>
      </trkpt>
      <trkpt lat="44.82981" lon="6.25405">
        <ele>1739.64</ele>
        <time>2016-09-08T07:14:45Z</time>
      </trkpt>
      <trkpt lat="44.82971" lon="6.25383">
        <ele>1741.08</ele>
        <time>2016-09-08T07:15:04Z</time>
      </trkpt>
      <trkpt lat="44.8297" lon="6.25359">
        <ele>1743.97</ele>
        <time>2016-09-08T07:15:27Z</time>
      </trkpt>
      <trkpt lat="44.82961" lon="6.25341">
        <ele>1747.33</ele>
        <time>2016-09-08T07:15:47Z</time>
      </trkpt>
      <trkpt lat="44.82957" lon="6.25325">
        <ele>1749.74</ele>
        <time>2016-09-08T07:16:05Z</time>
      </trkpt>
      <trkpt lat="44.82952" lon="6.25307">
        <ele>1752.62</ele>
        <time>2016-09-08T07:16:25Z</time>
      </trkpt>
      <trkpt lat="44.82947" lon="6.25293">
        <ele>1754.54</ele>
        <time>2016-09-08T07:16:41Z</time>
      </trkpt>
      <trkpt lat="44.82945" lon="6.25277">
        <ele>1757.43</ele>
        <time>2016-09-08T07:16:58Z</time>
      </trkpt>
      <trkpt lat="44.82946" lon="6.25269">
        <ele>1759.83</ele>
        <time>2016-09-08T07:17:13Z</time>
      </trkpt>
      <trkpt lat="44.82945" lon="6.25262">
        <ele>1762.71</ele>
        <time>2016-09-08T07:17:29Z</time>
      </trkpt>
      <trkpt lat="44.82948" lon="6.2526">
        <ele>1765.12</ele>
        <time>2016-09-08T07:17:45Z</time>
      </trkpt>
      <trkpt lat="44.82949" lon="6.25256">
        <ele>1767.04</ele>
        <time>2016-09-08T07:18:00Z</time>
      </trkpt>
      <trkpt lat="44.82947" lon="6.25252">
        <ele>1769.92</ele>
        <time>2016-09-08T07:18:15Z</time>
      </trkpt>
      <trkpt lat="44.82941" lon="6.25246">
        <ele>1771.37</ele>
        <time>2016-09-08T07:18:29Z</time>
      </trkpt>
      <trkpt lat="44.82951" lon="6.25245">
        <ele>1774.73</ele>
        <time>2016-09-08T07:18:45Z</time>
      </trkpt>
      <trkpt lat="44.82949" lon="6.25241">
        <ele>1774.73</ele>
        <time>2016-09-08T07:19:01Z</time>
      </trkpt>
      <trkpt lat="44.82953" lon="6.25233">
        <ele>1776.65</ele>
        <time>2016-09-08T07:19:14Z</time>
      </trkpt>
      <trkpt lat="44.82956" lon="6.2523">
        <ele>1778.1</ele>
        <time>2016-09-08T07:19:31Z</time>
      </trkpt>
      <trkpt lat="44.82955" lon="6.25228">
        <ele>1778.1</ele>
        <time>2016-09-08T07:19:48Z</time>
      </trkpt>
      <trkpt lat="44.82957" lon="6.25228">
        <ele>1778.1</ele>
        <time>2016-09-08T07:20:16Z</time>
      </trkpt>
      <trkpt lat="44.82955" lon="6.2524">
        <ele>1778.58</ele>
        <time>2016-09-08T07:20:38Z</time>
      </trkpt>
      <trkpt lat="44.82953" lon="6.25243">
        <ele>1778.58</ele>
        <time>2016-09-08T07:21:02Z</time>
      </trkpt>
      <trkpt lat="44.82955" lon="6.2523">
        <ele>1778.58</ele>
        <time>2016-09-08T07:21:33Z</time>
      </trkpt>
      <trkpt lat="44.82957" lon="6.2523">
        <ele>1778.58</ele>
        <time>2016-09-08T07:21:54Z</time>
      </trkpt>
      <trkpt lat="44.82956" lon="6.25234">
        <ele>1778.1</ele>
        <time>2016-09-08T07:22:10Z</time>
      </trkpt>
      <trkpt lat="44.82955" lon="6.25235">
        <ele>1778.1</ele>
        <time>2016-09-08T07:22:40Z</time>
      </trkpt>
      <trkpt lat="44.82955" lon="6.25232">
        <ele>1778.1</ele>
        <time>2016-09-08T07:23:00Z</time>
      </trkpt>
      <trkpt lat="44.82955" lon="6.25231">
        <ele>1778.1</ele>
        <time>2016-09-08T07:23:13Z</time>
      </trkpt>
      <trkpt lat="44.82956" lon="6.25232">
        <ele>1779.06</ele>
        <time>2016-09-08T07:23:24Z</time>
      </trkpt>
      <trkpt lat="44.82957" lon="6.25231">
        <ele>1779.54</ele>
        <time>2016-09-08T07:23:43Z</time>
      </trkpt>
      <trkpt lat="44.82959" lon="6.25233">
        <ele>1779.54</ele>
        <time>2016-09-08T07:24:12Z</time>
      </trkpt>
      <trkpt lat="44.82949" lon="6.25228">
        <ele>1779.54</ele>
        <time>2016-09-08T07:24:35Z</time>
      </trkpt>
      <trkpt lat="44.82959" lon="6.25233">
        <ele>1779.54</ele>
        <time>2016-09-08T07:24:59Z</time>
      </trkpt>
      <trkpt lat="44.8296" lon="6.25239">
        <ele>1779.54</ele>
        <time>2016-09-08T07:25:23Z</time>
      </trkpt>
      <trkpt lat="44.8296" lon="6.25233">
        <ele>1780.02</ele>
        <time>2016-09-08T07:25:47Z</time>
      </trkpt>
      <trkpt lat="44.82958" lon="6.25234">
        <ele>1779.06</ele>
        <time>2016-09-08T07:26:00Z</time>
      </trkpt>
      <trkpt lat="44.82958" lon="6.25233">
        <ele>1779.06</ele>
        <time>2016-09-08T07:26:18Z</time>
      </trkpt>
      <trkpt lat="44.82957" lon="6.25231">
        <ele>1780.02</ele>
        <time>2016-09-08T07:26:29Z</time>
      </trkpt>
      <trkpt lat="44.82958" lon="6.25229">
        <ele>1780.02</ele>
        <time>2016-09-08T07:27:03Z</time>
      </trkpt>
      <trkpt lat="44.82956" lon="6.25233">
        <ele>1780.5</ele>
        <time>2016-09-08T07:27:22Z</time>
      </trkpt>
      <trkpt lat="44.82965" lon="6.2524">
        <ele>1781.94</ele>
        <time>2016-09-08T07:27:37Z</time>
      </trkpt>
      <trkpt lat="44.82974" lon="6.25246">
        <ele>1783.86</ele>
        <time>2016-09-08T07:27:50Z</time>
      </trkpt>
      <trkpt lat="44.82981" lon="6.25252">
        <ele>1786.27</ele>
        <time>2016-09-08T07:28:04Z</time>
      </trkpt>
      <trkpt lat="44.82989" lon="6.25258">
        <ele>1789.63</ele>
        <time>2016-09-08T07:28:22Z</time>
      </trkpt>
      <trkpt lat="44.82994" lon="6.25266">
        <ele>1792.03</ele>
        <time>2016-09-08T07:28:40Z</time>
      </trkpt>
      <trkpt lat="44.83001" lon="6.25275">
        <ele>1794.44</ele>
        <time>2016-09-08T07:28:58Z</time>
      </trkpt>
      <trkpt lat="44.83007" lon="6.25279">
        <ele>1796.84</ele>
        <time>2016-09-08T07:29:13Z</time>
      </trkpt>
      <trkpt lat="44.83014" lon="6.25281">
        <ele>1799.24</ele>
        <time>2016-09-08T07:29:29Z</time>
      </trkpt>
      <trkpt lat="44.83022" lon="6.25282">
        <ele>1801.65</ele>
        <time>2016-09-08T07:29:44Z</time>
      </trkpt>
      <trkpt lat="44.83027" lon="6.25285">
        <ele>1804.53</ele>
        <time>2016-09-08T07:30:01Z</time>
      </trkpt>
      <trkpt lat="44.83033" lon="6.25289">
        <ele>1806.45</ele>
        <time>2016-09-08T07:30:15Z</time>
      </trkpt>
      <trkpt lat="44.83037" lon="6.25294">
        <ele>1809.34</ele>
        <time>2016-09-08T07:30:31Z</time>
      </trkpt>
      <trkpt lat="44.83037" lon="6.25286">
        <ele>1811.26</ele>
        <time>2016-09-08T07:30:46Z</time>
      </trkpt>
      <trkpt lat="44.83044" lon="6.2529">
        <ele>1814.15</ele>
        <time>2016-09-08T07:31:02Z</time>
      </trkpt>
      <trkpt lat="44.83046" lon="6.25289">
        <ele>1816.07</ele>
        <time>2016-09-08T07:31:17Z</time>
      </trkpt>
      <trkpt lat="44.83048" lon="6.25283">
        <ele>1818.47</ele>
        <time>2016-09-08T07:31:33Z</time>
      </trkpt>
      <trkpt lat="44.83047" lon="6.25278">
        <ele>1820.39</ele>
        <time>2016-09-08T07:31:46Z</time>
      </trkpt>
      <trkpt lat="44.83051" lon="6.25279">
        <ele>1822.32</ele>
        <time>2016-09-08T07:32:00Z</time>
      </trkpt>
      <trkpt lat="44.83058" lon="6.25285">
        <ele>1823.76</ele>
        <time>2016-09-08T07:32:13Z</time>
      </trkpt>
      <trkpt lat="44.83053" lon="6.25273">
        <ele>1826.16</ele>
        <time>2016-09-08T07:32:30Z</time>
      </trkpt>
      <trkpt lat="44.8305" lon="6.25262">
        <ele>1828.08</ele>
        <time>2016-09-08T07:32:44Z</time>
      </trkpt>
      <trkpt lat="44.83048" lon="6.25255">
        <ele>1830.49</ele>
        <time>2016-09-08T07:33:00Z</time>
      </trkpt>
      <trkpt lat="44.83047" lon="6.25251">
        <ele>1832.89</ele>
        <time>2016-09-08T07:33:13Z</time>
      </trkpt>
      <trkpt lat="44.83052" lon="6.2525">
        <ele>1835.29</ele>
        <time>2016-09-08T07:33:28Z</time>
      </trkpt>
      <trkpt lat="44.83062" lon="6.25256">
        <ele>1838.66</ele>
        <time>2016-09-08T07:33:48Z</time>
      </trkpt>
      <trkpt lat="44.83065" lon="6.25251">
        <ele>1841.06</ele>
        <time>2016-09-08T07:34:05Z</time>
      </trkpt>
      <trkpt lat="44.83071" lon="6.25253">
        <ele>1843.95</ele>
        <time>2016-09-08T07:34:21Z</time>
      </trkpt>
      <trkpt lat="44.83078" lon="6.25256">
        <ele>1845.87</ele>
        <time>2016-09-08T07:34:37Z</time>
      </trkpt>
      <trkpt lat="44.83082" lon="6.25258">
        <ele>1849.23</ele>
        <time>2016-09-08T07:34:51Z</time>
      </trkpt>
      <trkpt lat="44.83085" lon="6.2526">
        <ele>1850.68</ele>
        <time>2016-09-08T07:35:07Z</time>
      </trkpt>
      <trkpt lat="44.83091" lon="6.25258">
        <ele>1853.08</ele>
        <time>2016-09-08T07:35:23Z</time>
      </trkpt>
      <trkpt lat="44.83097" lon="6.25265">
        <ele>1854.52</ele>
        <time>2016-09-08T07:35:38Z</time>
      </trkpt>
      <trkpt lat="44.83104" lon="6.25265">
        <ele>1856.92</ele>
        <time>2016-09-08T07:35:54Z</time>
      </trkpt>
      <trkpt lat="44.83098" lon="6.25253">
        <ele>1858.85</ele>
        <time>2016-09-08T07:36:10Z</time>
      </trkpt>
      <trkpt lat="44.83096" lon="6.25242">
        <ele>1861.25</ele>
        <time>2016-09-08T07:36:24Z</time>
      </trkpt>
      <trkpt lat="44.83094" lon="6.25231">
        <ele>1864.13</ele>
        <time>2016-09-08T07:36:40Z</time>
      </trkpt>
      <trkpt lat="44.83102" lon="6.25237">
        <ele>1866.54</ele>
        <time>2016-09-08T07:36:56Z</time>
      </trkpt>
      <trkpt lat="44.83106" lon="6.25236">
        <ele>1869.42</ele>
        <time>2016-09-08T07:37:13Z</time>
      </trkpt>
      <trkpt lat="44.83103" lon="6.25224">
        <ele>1871.82</ele>
        <time>2016-09-08T07:37:28Z</time>
      </trkpt>
      <trkpt lat="44.831" lon="6.25216">
        <ele>1873.27</ele>
        <time>2016-09-08T07:37:45Z</time>
      </trkpt>
      <trkpt lat="44.83104" lon="6.25216">
        <ele>1875.67</ele>
        <time>2016-09-08T07:37:58Z</time>
      </trkpt>
      <trkpt lat="44.83098" lon="6.25206">
        <ele>1877.59</ele>
        <time>2016-09-08T07:38:13Z</time>
      </trkpt>
      <trkpt lat="44.83094" lon="6.25194">
        <ele>1880</ele>
        <time>2016-09-08T07:38:28Z</time>
      </trkpt>
      <trkpt lat="44.83099" lon="6.25193">
        <ele>1881.92</ele>
        <time>2016-09-08T07:38:42Z</time>
      </trkpt>
      <trkpt lat="44.83099" lon="6.25186">
        <ele>1884.8</ele>
        <time>2016-09-08T07:38:58Z</time>
      </trkpt>
      <trkpt lat="44.83102" lon="6.25186">
        <ele>1887.21</ele>
        <time>2016-09-08T07:39:15Z</time>
      </trkpt>
      <trkpt lat="44.83099" lon="6.25169">
        <ele>1889.61</ele>
        <time>2016-09-08T07:39:34Z</time>
      </trkpt>
      <trkpt lat="44.83098" lon="6.25153">
        <ele>1891.53</ele>
        <time>2016-09-08T07:39:51Z</time>
      </trkpt>
      <trkpt lat="44.83103" lon="6.25157">
        <ele>1893.93</ele>
        <time>2016-09-08T07:40:04Z</time>
      </trkpt>
      <trkpt lat="44.83107" lon="6.25167">
        <ele>1896.34</ele>
        <time>2016-09-08T07:40:20Z</time>
      </trkpt>
      <trkpt lat="44.83111" lon="6.25164">
        <ele>1897.78</ele>
        <time>2016-09-08T07:40:33Z</time>
      </trkpt>
      <trkpt lat="44.83115" lon="6.25159">
        <ele>1900.18</ele>
        <time>2016-09-08T07:40:47Z</time>
      </trkpt>
      <trkpt lat="44.8312" lon="6.25172">
        <ele>1902.59</ele>
        <time>2016-09-08T07:41:05Z</time>
      </trkpt>
      <trkpt lat="44.83125" lon="6.25175">
        <ele>1904.99</ele>
        <time>2016-09-08T07:41:20Z</time>
      </trkpt>
      <trkpt lat="44.83128" lon="6.25171">
        <ele>1907.39</ele>
        <time>2016-09-08T07:41:35Z</time>
      </trkpt>
      <trkpt lat="44.83131" lon="6.25165">
        <ele>1909.32</ele>
        <time>2016-09-08T07:41:51Z</time>
      </trkpt>
      <trkpt lat="44.83133" lon="6.25165">
        <ele>1911.24</ele>
        <time>2016-09-08T07:42:04Z</time>
      </trkpt>
      <trkpt lat="44.83132" lon="6.25153">
        <ele>1913.16</ele>
        <time>2016-09-08T07:42:20Z</time>
      </trkpt>
      <trkpt lat="44.83133" lon="6.2514">
        <ele>1915.56</ele>
        <time>2016-09-08T07:42:37Z</time>
      </trkpt>
      <trkpt lat="44.83133" lon="6.25124">
        <ele>1918.93</ele>
        <time>2016-09-08T07:42:55Z</time>
      </trkpt>
      <trkpt lat="44.83135" lon="6.25115">
        <ele>1920.37</ele>
        <time>2016-09-08T07:43:10Z</time>
      </trkpt>
      <trkpt lat="44.83139" lon="6.25107">
        <ele>1922.77</ele>
        <time>2016-09-08T07:43:26Z</time>
      </trkpt>
      <trkpt lat="44.83142" lon="6.25101">
        <ele>1925.18</ele>
        <time>2016-09-08T07:43:41Z</time>
      </trkpt>
      <trkpt lat="44.83144" lon="6.251">
        <ele>1927.1</ele>
        <time>2016-09-08T07:43:54Z</time>
      </trkpt>
      <trkpt lat="44.83143" lon="6.25088">
        <ele>1928.54</ele>
        <time>2016-09-08T07:44:08Z</time>
      </trkpt>
      <trkpt lat="44.83145" lon="6.25087">
        <ele>1929.02</ele>
        <time>2016-09-08T07:44:24Z</time>
      </trkpt>
      <trkpt lat="44.83145" lon="6.25085">
        <ele>1929.5</ele>
        <time>2016-09-08T07:44:59Z</time>
      </trkpt>
      <trkpt lat="44.83146" lon="6.25083">
        <ele>1929.5</ele>
        <time>2016-09-08T07:45:17Z</time>
      </trkpt>
      <trkpt lat="44.83144" lon="6.25086">
        <ele>1929.98</ele>
        <time>2016-09-08T07:45:46Z</time>
      </trkpt>
      <trkpt lat="44.83142" lon="6.25085">
        <ele>1929.98</ele>
        <time>2016-09-08T07:46:08Z</time>
      </trkpt>
      <trkpt lat="44.83144" lon="6.25087">
        <ele>1930.46</ele>
        <time>2016-09-08T07:46:44Z</time>
      </trkpt>
      <trkpt lat="44.83147" lon="6.25083">
        <ele>1930.46</ele>
        <time>2016-09-08T07:47:11Z</time>
      </trkpt>
      <trkpt lat="44.83147" lon="6.25084">
        <ele>1930.46</ele>
        <time>2016-09-08T07:47:42Z</time>
      </trkpt>
      <trkpt lat="44.83146" lon="6.25086">
        <ele>1930.46</ele>
        <time>2016-09-08T07:48:05Z</time>
      </trkpt>
      <trkpt lat="44.83146" lon="6.25084">
        <ele>1930.46</ele>
        <time>2016-09-08T07:48:37Z</time>
      </trkpt>
      <trkpt lat="44.83147" lon="6.25085">
        <ele>1930.95</ele>
        <time>2016-09-08T07:48:51Z</time>
      </trkpt>
      <trkpt lat="44.83147" lon="6.25086">
        <ele>1929.98</ele>
        <time>2016-09-08T07:49:03Z</time>
      </trkpt>
      <trkpt lat="44.83147" lon="6.25085">
        <ele>1929.98</ele>
        <time>2016-09-08T07:49:36Z</time>
      </trkpt>
      <trkpt lat="44.83146" lon="6.25086">
        <ele>1929.98</ele>
        <time>2016-09-08T07:50:16Z</time>
      </trkpt>
      <trkpt lat="44.83144" lon="6.25086">
        <ele>1930.46</ele>
        <time>2016-09-08T07:50:39Z</time>
      </trkpt>
      <trkpt lat="44.83144" lon="6.25086">
        <ele>1930.46</ele>
        <time>2016-09-08T07:51:04Z</time>
      </trkpt>
      <trkpt lat="44.83143" lon="6.25085">
        <ele>1930.46</ele>
        <time>2016-09-08T07:51:29Z</time>
      </trkpt>
      <trkpt lat="44.83146" lon="6.25087">
        <ele>1930.46</ele>
        <time>2016-09-08T07:52:07Z</time>
      </trkpt>
      <trkpt lat="44.83147" lon="6.25087">
        <ele>1930.46</ele>
        <time>2016-09-08T07:52:38Z</time>
      </trkpt>
      <trkpt lat="44.83147" lon="6.25086">
        <ele>1930.95</ele>
        <time>2016-09-08T07:53:08Z</time>
      </trkpt>
      <trkpt lat="44.83147" lon="6.25086">
        <ele>1930.95</ele>
        <time>2016-09-08T07:53:44Z</time>
      </trkpt>
      <trkpt lat="44.83146" lon="6.25087">
        <ele>1930.95</ele>
        <time>2016-09-08T07:54:27Z</time>
      </trkpt>
      <trkpt lat="44.83146" lon="6.25086">
        <ele>1930.95</ele>
        <time>2016-09-08T07:55:01Z</time>
      </trkpt>
      <trkpt lat="44.83147" lon="6.25085">
        <ele>1930.95</ele>
        <time>2016-09-08T07:55:31Z</time>
      </trkpt>
      <trkpt lat="44.83147" lon="6.25086">
        <ele>1930.95</ele>
        <time>2016-09-08T07:56:01Z</time>
      </trkpt>
      <trkpt lat="44.83147" lon="6.25086">
        <ele>1930.95</ele>
        <time>2016-09-08T07:56:36Z</time>
      </trkpt>
      <trkpt lat="44.83146" lon="6.25086">
        <ele>1930.95</ele>
        <time>2016-09-08T07:57:15Z</time>
      </trkpt>
      <trkpt lat="44.83147" lon="6.25085">
        <ele>1930.95</ele>
        <time>2016-09-08T07:57:56Z</time>
      </trkpt>
      <trkpt lat="44.83146" lon="6.25088">
        <ele>1930.95</ele>
        <time>2016-09-08T07:58:25Z</time>
      </trkpt>
      <trkpt lat="44.83145" lon="6.25088">
        <ele>1932.39</ele>
        <time>2016-09-08T07:59:02Z</time>
      </trkpt>
      <trkpt lat="44.83147" lon="6.25088">
        <ele>1931.43</ele>
        <time>2016-09-08T07:59:44Z</time>
      </trkpt>
      <trkpt lat="44.83146" lon="6.25089">
        <ele>1931.43</ele>
        <time>2016-09-08T08:00:28Z</time>
      </trkpt>
      <trkpt lat="44.83146" lon="6.25089">
        <ele>1931.91</ele>
        <time>2016-09-08T08:01:08Z</time>
      </trkpt>
      <trkpt lat="44.83145" lon="6.25089">
        <ele>1931.91</ele>
        <time>2016-09-08T08:01:43Z</time>
      </trkpt>
      <trkpt lat="44.83146" lon="6.25088">
        <ele>1932.39</ele>
        <time>2016-09-08T08:01:59Z</time>
      </trkpt>
      <trkpt lat="44.83147" lon="6.25089">
        <ele>1931.91</ele>
        <time>2016-09-08T08:02:01Z</time>
      </trkpt>
      <trkpt lat="44.83148" lon="6.25087">
        <ele>1932.87</ele>
        <time>2016-09-08T08:02:12Z</time>
      </trkpt>
      <trkpt lat="44.83148" lon="6.25085">
        <ele>1932.87</ele>
        <time>2016-09-08T08:02:25Z</time>
      </trkpt>
      <trkpt lat="44.83146" lon="6.25078">
        <ele>1933.83</ele>
        <time>2016-09-08T08:02:49Z</time>
      </trkpt>
      <trkpt lat="44.83148" lon="6.25069">
        <ele>1933.83</ele>
        <time>2016-09-08T08:02:57Z</time>
      </trkpt>
      <trkpt lat="44.83154" lon="6.25054">
        <ele>1936.23</ele>
        <time>2016-09-08T08:03:13Z</time>
      </trkpt>
      <trkpt lat="44.83154" lon="6.25053">
        <ele>1936.23</ele>
        <time>2016-09-08T08:03:15Z</time>
      </trkpt>
      <trkpt lat="44.83161" lon="6.25041">
        <ele>1937.19</ele>
        <time>2016-09-08T08:03:31Z</time>
      </trkpt>
      <trkpt lat="44.83167" lon="6.25032">
        <ele>1936.71</ele>
        <time>2016-09-08T08:03:42Z</time>
      </trkpt>
      <trkpt lat="44.83177" lon="6.25022">
        <ele>1938.16</ele>
        <time>2016-09-08T08:03:58Z</time>
      </trkpt>
      <trkpt lat="44.83187" lon="6.2501">
        <ele>1939.6</ele>
        <time>2016-09-08T08:04:14Z</time>
      </trkpt>
      <trkpt lat="44.83196" lon="6.24997">
        <ele>1941.04</ele>
        <time>2016-09-08T08:04:28Z</time>
      </trkpt>
      <trkpt lat="44.83202" lon="6.24985">
        <ele>1943.44</ele>
        <time>2016-09-08T08:04:43Z</time>
      </trkpt>
      <trkpt lat="44.83209" lon="6.24977">
        <ele>1945.85</ele>
        <time>2016-09-08T08:04:57Z</time>
      </trkpt>
      <trkpt lat="44.83216" lon="6.24965">
        <ele>1948.25</ele>
        <time>2016-09-08T08:05:13Z</time>
      </trkpt>
      <trkpt lat="44.83225" lon="6.24957">
        <ele>1949.69</ele>
        <time>2016-09-08T08:05:29Z</time>
      </trkpt>
      <trkpt lat="44.83236" lon="6.24948">
        <ele>1950.65</ele>
        <time>2016-09-08T08:05:44Z</time>
      </trkpt>
      <trkpt lat="44.83247" lon="6.24939">
        <ele>1951.61</ele>
        <time>2016-09-08T08:06:00Z</time>
      </trkpt>
      <trkpt lat="44.83256" lon="6.2493">
        <ele>1954.02</ele>
        <time>2016-09-08T08:06:15Z</time>
      </trkpt>
      <trkpt lat="44.83267" lon="6.24927">
        <ele>1957.38</ele>
        <time>2016-09-08T08:06:32Z</time>
      </trkpt>
      <trkpt lat="44.83274" lon="6.24919">
        <ele>1959.78</ele>
        <time>2016-09-08T08:06:48Z</time>
      </trkpt>
      <trkpt lat="44.83283" lon="6.24907">
        <ele>1961.71</ele>
        <time>2016-09-08T08:07:03Z</time>
      </trkpt>
      <trkpt lat="44.83293" lon="6.24896">
        <ele>1964.11</ele>
        <time>2016-09-08T08:07:19Z</time>
      </trkpt>
      <trkpt lat="44.83303" lon="6.24886">
        <ele>1966.03</ele>
        <time>2016-09-08T08:07:35Z</time>
      </trkpt>
      <trkpt lat="44.83311" lon="6.24884">
        <ele>1968.92</ele>
        <time>2016-09-08T08:07:52Z</time>
      </trkpt>
      <trkpt lat="44.83318" lon="6.24875">
        <ele>1971.32</ele>
        <time>2016-09-08T08:08:08Z</time>
      </trkpt>
      <trkpt lat="44.83328" lon="6.24869">
        <ele>1973.24</ele>
        <time>2016-09-08T08:08:23Z</time>
      </trkpt>
      <trkpt lat="44.83336" lon="6.24864">
        <ele>1975.65</ele>
        <time>2016-09-08T08:08:38Z</time>
      </trkpt>
      <trkpt lat="44.83343" lon="6.24858">
        <ele>1978.05</ele>
        <time>2016-09-08T08:08:53Z</time>
      </trkpt>
      <trkpt lat="44.83352" lon="6.24847">
        <ele>1980.45</ele>
        <time>2016-09-08T08:09:11Z</time>
      </trkpt>
      <trkpt lat="44.8336" lon="6.24842">
        <ele>1983.34</ele>
        <time>2016-09-08T08:09:28Z</time>
      </trkpt>
      <trkpt lat="44.83364" lon="6.24844">
        <ele>1984.78</ele>
        <time>2016-09-08T08:09:41Z</time>
      </trkpt>
      <trkpt lat="44.83369" lon="6.24841">
        <ele>1987.18</ele>
        <time>2016-09-08T08:10:02Z</time>
      </trkpt>
      <trkpt lat="44.83373" lon="6.24833">
        <ele>1989.59</ele>
        <time>2016-09-08T08:10:19Z</time>
      </trkpt>
      <trkpt lat="44.83379" lon="6.24826">
        <ele>1991.03</ele>
        <time>2016-09-08T08:10:32Z</time>
      </trkpt>
      <trkpt lat="44.83386" lon="6.24823">
        <ele>1992.95</ele>
        <time>2016-09-08T08:10:54Z</time>
      </trkpt>
      <trkpt lat="44.83392" lon="6.24818">
        <ele>1995.35</ele>
        <time>2016-09-08T08:11:08Z</time>
      </trkpt>
      <trkpt lat="44.83397" lon="6.24807">
        <ele>1997.28</ele>
        <time>2016-09-08T08:11:24Z</time>
      </trkpt>
      <trkpt lat="44.83407" lon="6.24798">
        <ele>1999.68</ele>
        <time>2016-09-08T08:11:41Z</time>
      </trkpt>
      <trkpt lat="44.83414" lon="6.24786">
        <ele>2000.64</ele>
        <time>2016-09-08T08:11:55Z</time>
      </trkpt>
      <trkpt lat="44.83418" lon="6.24773">
        <ele>2002.56</ele>
        <time>2016-09-08T08:12:11Z</time>
      </trkpt>
      <trkpt lat="44.83425" lon="6.24764">
        <ele>2004.01</ele>
        <time>2016-09-08T08:12:27Z</time>
      </trkpt>
      <trkpt lat="44.83434" lon="6.24754">
        <ele>2005.93</ele>
        <time>2016-09-08T08:12:44Z</time>
      </trkpt>
      <trkpt lat="44.83438" lon="6.24739">
        <ele>2007.37</ele>
        <time>2016-09-08T08:12:59Z</time>
      </trkpt>
      <trkpt lat="44.83442" lon="6.2473">
        <ele>2007.85</ele>
        <time>2016-09-08T08:13:15Z</time>
      </trkpt>
      <trkpt lat="44.83443" lon="6.24719">
        <ele>2010.25</ele>
        <time>2016-09-08T08:13:29Z</time>
      </trkpt>
      <trkpt lat="44.83443" lon="6.24706">
        <ele>2011.7</ele>
        <time>2016-09-08T08:13:41Z</time>
      </trkpt>
      <trkpt lat="44.83443" lon="6.24696">
        <ele>2013.14</ele>
        <time>2016-09-08T08:13:54Z</time>
      </trkpt>
      <trkpt lat="44.83444" lon="6.24681">
        <ele>2014.58</ele>
        <time>2016-09-08T08:14:08Z</time>
      </trkpt>
      <trkpt lat="44.83448" lon="6.24664">
        <ele>2016.02</ele>
        <time>2016-09-08T08:14:26Z</time>
      </trkpt>
      <trkpt lat="44.8345" lon="6.24655">
        <ele>2016.5</ele>
        <time>2016-09-08T08:14:35Z</time>
      </trkpt>
      <trkpt lat="44.83456" lon="6.24642">
        <ele>2018.43</ele>
        <time>2016-09-08T08:14:51Z</time>
      </trkpt>
      <trkpt lat="44.83459" lon="6.24636">
        <ele>2020.35</ele>
        <time>2016-09-08T08:15:10Z</time>
      </trkpt>
      <trkpt lat="44.83464" lon="6.24626">
        <ele>2022.27</ele>
        <time>2016-09-08T08:15:25Z</time>
      </trkpt>
      <trkpt lat="44.83467" lon="6.24616">
        <ele>2024.67</ele>
        <time>2016-09-08T08:15:40Z</time>
      </trkpt>
      <trkpt lat="44.83473" lon="6.24611">
        <ele>2026.12</ele>
        <time>2016-09-08T08:15:53Z</time>
      </trkpt>
      <trkpt lat="44.83478" lon="6.24601">
        <ele>2027.08</ele>
        <time>2016-09-08T08:16:07Z</time>
      </trkpt>
      <trkpt lat="44.83484" lon="6.2459">
        <ele>2029.48</ele>
        <time>2016-09-08T08:16:24Z</time>
      </trkpt>
      <trkpt lat="44.83489" lon="6.24582">
        <ele>2031.4</ele>
        <time>2016-09-08T08:16:40Z</time>
      </trkpt>
      <trkpt lat="44.83491" lon="6.24569">
        <ele>2033.81</ele>
        <time>2016-09-08T08:16:55Z</time>
      </trkpt>
      <trkpt lat="44.83495" lon="6.24562">
        <ele>2037.17</ele>
        <time>2016-09-08T08:17:10Z</time>
      </trkpt>
      <trkpt lat="44.83498" lon="6.24557">
        <ele>2037.65</ele>
        <time>2016-09-08T08:17:24Z</time>
      </trkpt>
      <trkpt lat="44.83501" lon="6.2456">
        <ele>2037.65</ele>
        <time>2016-09-08T08:17:56Z</time>
      </trkpt>
      <trkpt lat="44.83499" lon="6.24547">
        <ele>2037.65</ele>
        <time>2016-09-08T08:18:34Z</time>
      </trkpt>
      <trkpt lat="44.83497" lon="6.24553">
        <ele>2038.61</ele>
        <time>2016-09-08T08:19:11Z</time>
      </trkpt>
      <trkpt lat="44.83498" lon="6.24558">
        <ele>2038.13</ele>
        <time>2016-09-08T08:19:40Z</time>
      </trkpt>
      <trkpt lat="44.83507" lon="6.24549">
        <ele>2040.54</ele>
        <time>2016-09-08T08:19:56Z</time>
      </trkpt>
      <trkpt lat="44.83515" lon="6.24543">
        <ele>2043.42</ele>
        <time>2016-09-08T08:20:12Z</time>
      </trkpt>
      <trkpt lat="44.83524" lon="6.24538">
        <ele>2045.82</ele>
        <time>2016-09-08T08:20:29Z</time>
      </trkpt>
      <trkpt lat="44.83532" lon="6.24536">
        <ele>2048.23</ele>
        <time>2016-09-08T08:20:45Z</time>
      </trkpt>
      <trkpt lat="44.83536" lon="6.24534">
        <ele>2049.67</ele>
        <time>2016-09-08T08:21:05Z</time>
      </trkpt>
      <trkpt lat="44.83543" lon="6.24528">
        <ele>2052.07</ele>
        <time>2016-09-08T08:21:20Z</time>
      </trkpt>
      <trkpt lat="44.83548" lon="6.24525">
        <ele>2054.96</ele>
        <time>2016-09-08T08:21:35Z</time>
      </trkpt>
      <trkpt lat="44.83547" lon="6.2452">
        <ele>2057.84</ele>
        <time>2016-09-08T08:21:52Z</time>
      </trkpt>
      <trkpt lat="44.83547" lon="6.24512">
        <ele>2060.24</ele>
        <time>2016-09-08T08:22:08Z</time>
      </trkpt>
      <trkpt lat="44.83543" lon="6.24506">
        <ele>2063.13</ele>
        <time>2016-09-08T08:22:21Z</time>
      </trkpt>
      <trkpt lat="44.83542" lon="6.245">
        <ele>2065.05</ele>
        <time>2016-09-08T08:22:36Z</time>
      </trkpt>
      <trkpt lat="44.83545" lon="6.24494">
        <ele>2067.45</ele>
        <time>2016-09-08T08:22:50Z</time>
      </trkpt>
      <trkpt lat="44.83548" lon="6.24491">
        <ele>2068.89</ele>
        <time>2016-09-08T08:23:04Z</time>
      </trkpt>
      <trkpt lat="44.83554" lon="6.24485">
        <ele>2072.26</ele>
        <time>2016-09-08T08:23:20Z</time>
      </trkpt>
      <trkpt lat="44.83559" lon="6.24482">
        <ele>2074.18</ele>
        <time>2016-09-08T08:23:36Z</time>
      </trkpt>
      <trkpt lat="44.83564" lon="6.24481">
        <ele>2076.1</ele>
        <time>2016-09-08T08:23:51Z</time>
      </trkpt>
      <trkpt lat="44.83571" lon="6.24482">
        <ele>2078.51</ele>
        <time>2016-09-08T08:24:09Z</time>
      </trkpt>
      <trkpt lat="44.83579" lon="6.24482">
        <ele>2081.39</ele>
        <time>2016-09-08T08:24:26Z</time>
      </trkpt>
      <trkpt lat="44.83584" lon="6.24472">
        <ele>2084.28</ele>
        <time>2016-09-08T08:24:43Z</time>
      </trkpt>
      <trkpt lat="44.8359" lon="6.24469">
        <ele>2086.2</ele>
        <time>2016-09-08T08:24:58Z</time>
      </trkpt>
      <trkpt lat="44.83595" lon="6.2448">
        <ele>2089.08</ele>
        <time>2016-09-08T08:25:13Z</time>
      </trkpt>
      <trkpt lat="44.83601" lon="6.24484">
        <ele>2091</ele>
        <time>2016-09-08T08:25:28Z</time>
      </trkpt>
      <trkpt lat="44.83603" lon="6.24486">
        <ele>2092.45</ele>
        <time>2016-09-08T08:25:45Z</time>
      </trkpt>
      <trkpt lat="44.83606" lon="6.24483">
        <ele>2093.89</ele>
        <time>2016-09-08T08:26:04Z</time>
      </trkpt>
      <trkpt lat="44.83607" lon="6.24494">
        <ele>2096.29</ele>
        <time>2016-09-08T08:26:22Z</time>
      </trkpt>
      <trkpt lat="44.83608" lon="6.24491">
        <ele>2096.77</ele>
        <time>2016-09-08T08:26:38Z</time>
      </trkpt>
      <trkpt lat="44.8361" lon="6.24493">
        <ele>2096.77</ele>
        <time>2016-09-08T08:27:02Z</time>
      </trkpt>
      <trkpt lat="44.8361" lon="6.24492">
        <ele>2097.25</ele>
        <time>2016-09-08T08:27:37Z</time>
      </trkpt>
      <trkpt lat="44.83608" lon="6.24496">
        <ele>2097.25</ele>
        <time>2016-09-08T08:28:06Z</time>
      </trkpt>
      <trkpt lat="44.83608" lon="6.24491">
        <ele>2098.21</ele>
        <time>2016-09-08T08:28:26Z</time>
      </trkpt>
      <trkpt lat="44.83606" lon="6.24491">
        <ele>2097.73</ele>
        <time>2016-09-08T08:28:49Z</time>
      </trkpt>
      <trkpt lat="44.83606" lon="6.24489">
        <ele>2097.73</ele>
        <time>2016-09-08T08:29:11Z</time>
      </trkpt>
      <trkpt lat="44.83609" lon="6.24495">
        <ele>2099.18</ele>
        <time>2016-09-08T08:29:26Z</time>
      </trkpt>
      <trkpt lat="44.83609" lon="6.24496">
        <ele>2099.66</ele>
        <time>2016-09-08T08:29:28Z</time>
      </trkpt>
      <trkpt lat="44.83609" lon="6.24502">
        <ele>2101.58</ele>
        <time>2016-09-08T08:29:42Z</time>
      </trkpt>
      <trkpt lat="44.83604" lon="6.24504">
        <ele>2102.06</ele>
        <time>2016-09-08T08:29:51Z</time>
      </trkpt>
      <trkpt lat="44.83604" lon="6.24506">
        <ele>2102.06</ele>
        <time>2016-09-08T08:30:14Z</time>
      </trkpt>
      <trkpt lat="44.83611" lon="6.24513">
        <ele>2104.46</ele>
        <time>2016-09-08T08:30:31Z</time>
      </trkpt>
      <trkpt lat="44.83613" lon="6.24509">
        <ele>2105.91</ele>
        <time>2016-09-08T08:30:49Z</time>
      </trkpt>
      <trkpt lat="44.83615" lon="6.24511">
        <ele>2107.83</ele>
        <time>2016-09-08T08:31:02Z</time>
      </trkpt>
      <trkpt lat="44.83618" lon="6.24508">
        <ele>2109.27</ele>
        <time>2016-09-08T08:31:14Z</time>
      </trkpt>
      <trkpt lat="44.83621" lon="6.24508">
        <ele>2111.19</ele>
        <time>2016-09-08T08:31:30Z</time>
      </trkpt>
      <trkpt lat="44.83623" lon="6.24503">
        <ele>2113.6</ele>
        <time>2016-09-08T08:31:47Z</time>
      </trkpt>
      <trkpt lat="44.83623" lon="6.24499">
        <ele>2115.52</ele>
        <time>2016-09-08T08:32:03Z</time>
      </trkpt>
      <trkpt lat="44.83626" lon="6.24503">
        <ele>2117.44</ele>
        <time>2016-09-08T08:32:16Z</time>
      </trkpt>
      <trkpt lat="44.83629" lon="6.24494">
        <ele>2119.36</ele>
        <time>2016-09-08T08:32:33Z</time>
      </trkpt>
      <trkpt lat="44.83635" lon="6.24493">
        <ele>2121.77</ele>
        <time>2016-09-08T08:32:48Z</time>
      </trkpt>
      <trkpt lat="44.83636" lon="6.24503">
        <ele>2123.69</ele>
        <time>2016-09-08T08:33:04Z</time>
      </trkpt>
      <trkpt lat="44.83635" lon="6.24509">
        <ele>2125.13</ele>
        <time>2016-09-08T08:33:20Z</time>
      </trkpt>
      <trkpt lat="44.83638" lon="6.24505">
        <ele>2126.09</ele>
        <time>2016-09-08T08:33:33Z</time>
      </trkpt>
      <trkpt lat="44.83647" lon="6.24496">
        <ele>2128.98</ele>
        <time>2016-09-08T08:33:50Z</time>
      </trkpt>
      <trkpt lat="44.83654" lon="6.2449">
        <ele>2130.9</ele>
        <time>2016-09-08T08:34:06Z</time>
      </trkpt>
      <trkpt lat="44.83653" lon="6.24498">
        <ele>2132.34</ele>
        <time>2016-09-08T08:34:20Z</time>
      </trkpt>
      <trkpt lat="44.83653" lon="6.24508">
        <ele>2134.74</ele>
        <time>2016-09-08T08:34:34Z</time>
      </trkpt>
      <trkpt lat="44.83658" lon="6.24503">
        <ele>2136.67</ele>
        <time>2016-09-08T08:34:48Z</time>
      </trkpt>
      <trkpt lat="44.83664" lon="6.24493">
        <ele>2138.11</ele>
        <time>2016-09-08T08:35:05Z</time>
      </trkpt>
      <trkpt lat="44.8367" lon="6.24486">
        <ele>2141.47</ele>
        <time>2016-09-08T08:35:17Z</time>
      </trkpt>
      <trkpt lat="44.83677" lon="6.24488">
        <ele>2141.95</ele>
        <time>2016-09-08T08:35:35Z</time>
      </trkpt>
      <trkpt lat="44.83673" lon="6.24498">
        <ele>2143.88</ele>
        <time>2016-09-08T08:35:51Z</time>
      </trkpt>
      <trkpt lat="44.83674" lon="6.24511">
        <ele>2145.32</ele>
        <time>2016-09-08T08:36:07Z</time>
      </trkpt>
      <trkpt lat="44.83678" lon="6.2452">
        <ele>2147.72</ele>
        <time>2016-09-08T08:36:23Z</time>
      </trkpt>
      <trkpt lat="44.83682" lon="6.24526">
        <ele>2149.65</ele>
        <time>2016-09-08T08:36:37Z</time>
      </trkpt>
      <trkpt lat="44.83682" lon="6.24513">
        <ele>2151.57</ele>
        <time>2016-09-08T08:36:53Z</time>
      </trkpt>
      <trkpt lat="44.8369" lon="6.24502">
        <ele>2153.01</ele>
        <time>2016-09-08T08:37:07Z</time>
      </trkpt>
      <trkpt lat="44.837" lon="6.24494">
        <ele>2154.93</ele>
        <time>2016-09-08T08:37:23Z</time>
      </trkpt>
      <trkpt lat="44.83712" lon="6.24498">
        <ele>2157.82</ele>
        <time>2016-09-08T08:37:42Z</time>
      </trkpt>
      <trkpt lat="44.83714" lon="6.24489">
        <ele>2159.26</ele>
        <time>2016-09-08T08:37:59Z</time>
      </trkpt>
      <trkpt lat="44.8372" lon="6.24485">
        <ele>2160.7</ele>
        <time>2016-09-08T08:38:11Z</time>
      </trkpt>
      <trkpt lat="44.8373" lon="6.24476">
        <ele>2162.62</ele>
        <time>2016-09-08T08:38:27Z</time>
      </trkpt>
      <trkpt lat="44.83735" lon="6.24467">
        <ele>2164.06</ele>
        <time>2016-09-08T08:38:42Z</time>
      </trkpt>
      <trkpt lat="44.83737" lon="6.24455">
        <ele>2166.47</ele>
        <time>2016-09-08T08:38:58Z</time>
      </trkpt>
      <trkpt lat="44.83745" lon="6.24464">
        <ele>2168.39</ele>
        <time>2016-09-08T08:39:12Z</time>
      </trkpt>
      <trkpt lat="44.83747" lon="6.24473">
        <ele>2169.35</ele>
        <time>2016-09-08T08:39:23Z</time>
      </trkpt>
      <trkpt lat="44.83748" lon="6.24486">
        <ele>2172.24</ele>
        <time>2016-09-08T08:39:40Z</time>
      </trkpt>
      <trkpt lat="44.8375" lon="6.24491">
        <ele>2173.2</ele>
        <time>2016-09-08T08:39:57Z</time>
      </trkpt>
      <trkpt lat="44.83745" lon="6.24489">
        <ele>2173.68</ele>
        <time>2016-09-08T08:40:17Z</time>
      </trkpt>
      <trkpt lat="44.83745" lon="6.24486">
        <ele>2173.2</ele>
        <time>2016-09-08T08:40:40Z</time>
      </trkpt>
      <trkpt lat="44.83747" lon="6.24486">
        <ele>2173.68</ele>
        <time>2016-09-08T08:41:14Z</time>
      </trkpt>
      <trkpt lat="44.83746" lon="6.24485">
        <ele>2174.16</ele>
        <time>2016-09-08T08:41:45Z</time>
      </trkpt>
      <trkpt lat="44.83746" lon="6.24488">
        <ele>2174.16</ele>
        <time>2016-09-08T08:42:16Z</time>
      </trkpt>
      <trkpt lat="44.83746" lon="6.2449">
        <ele>2174.16</ele>
        <time>2016-09-08T08:42:46Z</time>
      </trkpt>
      <trkpt lat="44.8375" lon="6.24489">
        <ele>2174.16</ele>
        <time>2016-09-08T08:43:12Z</time>
      </trkpt>
      <trkpt lat="44.8375" lon="6.24489">
        <ele>2174.16</ele>
        <time>2016-09-08T08:43:42Z</time>
      </trkpt>
      <trkpt lat="44.83748" lon="6.24488">
        <ele>2174.16</ele>
        <time>2016-09-08T08:44:14Z</time>
      </trkpt>
      <trkpt lat="44.83748" lon="6.24489">
        <ele>2174.16</ele>
        <time>2016-09-08T08:44:43Z</time>
      </trkpt>
      <trkpt lat="44.83745" lon="6.24488">
        <ele>2174.64</ele>
        <time>2016-09-08T08:45:19Z</time>
      </trkpt>
      <trkpt lat="44.83744" lon="6.24489">
        <ele>2174.16</ele>
        <time>2016-09-08T08:45:54Z</time>
      </trkpt>
      <trkpt lat="44.83747" lon="6.24489">
        <ele>2174.64</ele>
        <time>2016-09-08T08:46:19Z</time>
      </trkpt>
      <trkpt lat="44.83747" lon="6.24491">
        <ele>2174.64</ele>
        <time>2016-09-08T08:46:47Z</time>
      </trkpt>
      <trkpt lat="44.83746" lon="6.24491">
        <ele>2174.64</ele>
        <time>2016-09-08T08:47:20Z</time>
      </trkpt>
      <trkpt lat="44.83746" lon="6.24491">
        <ele>2174.64</ele>
        <time>2016-09-08T08:47:54Z</time>
      </trkpt>
      <trkpt lat="44.8375" lon="6.24496">
        <ele>2176.08</ele>
        <time>2016-09-08T08:48:18Z</time>
      </trkpt>
      <trkpt lat="44.8375" lon="6.24509">
        <ele>2178</ele>
        <time>2016-09-08T08:48:35Z</time>
      </trkpt>
      <trkpt lat="44.83755" lon="6.2451">
        <ele>2180.41</ele>
        <time>2016-09-08T08:48:50Z</time>
      </trkpt>
      <trkpt lat="44.83762" lon="6.24504">
        <ele>2183.29</ele>
        <time>2016-09-08T08:49:09Z</time>
      </trkpt>
      <trkpt lat="44.83766" lon="6.24507">
        <ele>2185.21</ele>
        <time>2016-09-08T08:49:22Z</time>
      </trkpt>
      <trkpt lat="44.83769" lon="6.24506">
        <ele>2187.62</ele>
        <time>2016-09-08T08:49:36Z</time>
      </trkpt>
      <trkpt lat="44.83771" lon="6.24507">
        <ele>2189.54</ele>
        <time>2016-09-08T08:49:51Z</time>
      </trkpt>
      <trkpt lat="44.83774" lon="6.24507">
        <ele>2191.46</ele>
        <time>2016-09-08T08:50:04Z</time>
      </trkpt>
      <trkpt lat="44.83777" lon="6.24504">
        <ele>2193.87</ele>
        <time>2016-09-08T08:50:18Z</time>
      </trkpt>
      <trkpt lat="44.83781" lon="6.24497">
        <ele>2195.79</ele>
        <time>2016-09-08T08:50:33Z</time>
      </trkpt>
      <trkpt lat="44.83785" lon="6.24487">
        <ele>2198.19</ele>
        <time>2016-09-08T08:50:49Z</time>
      </trkpt>
      <trkpt lat="44.83791" lon="6.24483">
        <ele>2200.59</ele>
        <time>2016-09-08T08:51:05Z</time>
      </trkpt>
      <trkpt lat="44.83799" lon="6.24481">
        <ele>2203</ele>
        <time>2016-09-08T08:51:22Z</time>
      </trkpt>
      <trkpt lat="44.83805" lon="6.24476">
        <ele>2205.88</ele>
        <time>2016-09-08T08:51:37Z</time>
      </trkpt>
      <trkpt lat="44.83814" lon="6.2448">
        <ele>2208.77</ele>
        <time>2016-09-08T08:51:55Z</time>
      </trkpt>
      <trkpt lat="44.83818" lon="6.24483">
        <ele>2212.13</ele>
        <time>2016-09-08T08:52:12Z</time>
      </trkpt>
      <trkpt lat="44.83822" lon="6.24489">
        <ele>2214.05</ele>
        <time>2016-09-08T08:52:27Z</time>
      </trkpt>
      <trkpt lat="44.83824" lon="6.24496">
        <ele>2216.46</ele>
        <time>2016-09-08T08:52:42Z</time>
      </trkpt>
      <trkpt lat="44.83831" lon="6.24501">
        <ele>2218.86</ele>
        <time>2016-09-08T08:53:01Z</time>
      </trkpt>
      <trkpt lat="44.83837" lon="6.24506">
        <ele>2221.26</ele>
        <time>2016-09-08T08:53:15Z</time>
      </trkpt>
      <trkpt lat="44.83843" lon="6.24503">
        <ele>2223.67</ele>
        <time>2016-09-08T08:53:33Z</time>
      </trkpt>
      <trkpt lat="44.83848" lon="6.24502">
        <ele>2226.55</ele>
        <time>2016-09-08T08:53:49Z</time>
      </trkpt>
      <trkpt lat="44.83853" lon="6.24497">
        <ele>2229.43</ele>
        <time>2016-09-08T08:54:04Z</time>
      </trkpt>
      <trkpt lat="44.8386" lon="6.2449">
        <ele>2231.36</ele>
        <time>2016-09-08T08:54:19Z</time>
      </trkpt>
      <trkpt lat="44.83868" lon="6.24487">
        <ele>2232.32</ele>
        <time>2016-09-08T08:54:31Z</time>
      </trkpt>
      <trkpt lat="44.83877" lon="6.24481">
        <ele>2233.76</ele>
        <time>2016-09-08T08:54:47Z</time>
      </trkpt>
      <trkpt lat="44.83883" lon="6.24476">
        <ele>2235.68</ele>
        <time>2016-09-08T08:55:01Z</time>
      </trkpt>
      <trkpt lat="44.83888" lon="6.2447">
        <ele>2238.09</ele>
        <time>2016-09-08T08:55:17Z</time>
      </trkpt>
      <trkpt lat="44.83895" lon="6.24473">
        <ele>2240.97</ele>
        <time>2016-09-08T08:55:35Z</time>
      </trkpt>
      <trkpt lat="44.83901" lon="6.24476">
        <ele>2243.37</ele>
        <time>2016-09-08T08:55:53Z</time>
      </trkpt>
      <trkpt lat="44.83909" lon="6.24472">
        <ele>2246.26</ele>
        <time>2016-09-08T08:56:10Z</time>
      </trkpt>
      <trkpt lat="44.83916" lon="6.2447">
        <ele>2249.14</ele>
        <time>2016-09-08T08:56:27Z</time>
      </trkpt>
      <trkpt lat="44.83925" lon="6.24467">
        <ele>2251.06</ele>
        <time>2016-09-08T08:56:43Z</time>
      </trkpt>
      <trkpt lat="44.8393" lon="6.24458">
        <ele>2252.51</ele>
        <time>2016-09-08T08:56:59Z</time>
      </trkpt>
      <trkpt lat="44.83935" lon="6.24455">
        <ele>2254.43</ele>
        <time>2016-09-08T08:57:13Z</time>
      </trkpt>
      <trkpt lat="44.83941" lon="6.24451">
        <ele>2257.31</ele>
        <time>2016-09-08T08:57:30Z</time>
      </trkpt>
      <trkpt lat="44.83946" lon="6.24453">
        <ele>2260.2</ele>
        <time>2016-09-08T08:57:42Z</time>
      </trkpt>
      <trkpt lat="44.83951" lon="6.24446">
        <ele>2261.16</ele>
        <time>2016-09-08T08:57:56Z</time>
      </trkpt>
      <trkpt lat="44.83956" lon="6.24443">
        <ele>2263.08</ele>
        <time>2016-09-08T08:58:11Z</time>
      </trkpt>
      <trkpt lat="44.83962" lon="6.24454">
        <ele>2265.96</ele>
        <time>2016-09-08T08:58:28Z</time>
      </trkpt>
      <trkpt lat="44.83965" lon="6.24454">
        <ele>2268.37</ele>
        <time>2016-09-08T08:58:43Z</time>
      </trkpt>
      <trkpt lat="44.83969" lon="6.24454">
        <ele>2270.29</ele>
        <time>2016-09-08T08:58:57Z</time>
      </trkpt>
      <trkpt lat="44.83973" lon="6.24455">
        <ele>2272.21</ele>
        <time>2016-09-08T08:59:11Z</time>
      </trkpt>
      <trkpt lat="44.83978" lon="6.24458">
        <ele>2274.14</ele>
        <time>2016-09-08T08:59:26Z</time>
      </trkpt>
      <trkpt lat="44.83982" lon="6.24467">
        <ele>2276.06</ele>
        <time>2016-09-08T08:59:40Z</time>
      </trkpt>
      <trkpt lat="44.83983" lon="6.24464">
        <ele>2277.5</ele>
        <time>2016-09-08T08:59:55Z</time>
      </trkpt>
      <trkpt lat="44.83987" lon="6.24464">
        <ele>2279.42</ele>
        <time>2016-09-08T09:00:07Z</time>
      </trkpt>
      <trkpt lat="44.83991" lon="6.24467">
        <ele>2280.87</ele>
        <time>2016-09-08T09:00:20Z</time>
      </trkpt>
      <trkpt lat="44.83995" lon="6.24466">
        <ele>2283.27</ele>
        <time>2016-09-08T09:00:35Z</time>
      </trkpt>
      <trkpt lat="44.84" lon="6.24468">
        <ele>2285.19</ele>
        <time>2016-09-08T09:00:51Z</time>
      </trkpt>
      <trkpt lat="44.84005" lon="6.24467">
        <ele>2287.59</ele>
        <time>2016-09-08T09:01:06Z</time>
      </trkpt>
      <trkpt lat="44.84008" lon="6.24475">
        <ele>2289.04</ele>
        <time>2016-09-08T09:01:25Z</time>
      </trkpt>
      <trkpt lat="44.8401" lon="6.24475">
        <ele>2290.96</ele>
        <time>2016-09-08T09:01:38Z</time>
      </trkpt>
      <trkpt lat="44.84015" lon="6.24471">
        <ele>2293.36</ele>
        <time>2016-09-08T09:01:54Z</time>
      </trkpt>
      <trkpt lat="44.84019" lon="6.24475">
        <ele>2295.77</ele>
        <time>2016-09-08T09:02:09Z</time>
      </trkpt>
      <trkpt lat="44.84022" lon="6.2448">
        <ele>2297.69</ele>
        <time>2016-09-08T09:02:24Z</time>
      </trkpt>
      <trkpt lat="44.84027" lon="6.2448">
        <ele>2299.61</ele>
        <time>2016-09-08T09:02:38Z</time>
      </trkpt>
      <trkpt lat="44.84029" lon="6.24483">
        <ele>2301.53</ele>
        <time>2016-09-08T09:02:52Z</time>
      </trkpt>
      <trkpt lat="44.84036" lon="6.24486">
        <ele>2303.94</ele>
        <time>2016-09-08T09:03:10Z</time>
      </trkpt>
      <trkpt lat="44.84038" lon="6.24491">
        <ele>2306.34</ele>
        <time>2016-09-08T09:03:27Z</time>
      </trkpt>
      <trkpt lat="44.84041" lon="6.24495">
        <ele>2308.74</ele>
        <time>2016-09-08T09:03:40Z</time>
      </trkpt>
      <trkpt lat="44.84045" lon="6.24497">
        <ele>2310.19</ele>
        <time>2016-09-08T09:03:53Z</time>
      </trkpt>
      <trkpt lat="44.84052" lon="6.24492">
        <ele>2312.11</ele>
        <time>2016-09-08T09:04:10Z</time>
      </trkpt>
      <trkpt lat="44.84059" lon="6.24488">
        <ele>2313.55</ele>
        <time>2016-09-08T09:04:24Z</time>
      </trkpt>
      <trkpt lat="44.84062" lon="6.24487">
        <ele>2314.51</ele>
        <time>2016-09-08T09:04:37Z</time>
      </trkpt>
      <trkpt lat="44.84061" lon="6.24484">
        <ele>2314.99</ele>
        <time>2016-09-08T09:05:04Z</time>
      </trkpt>
      <trkpt lat="44.84064" lon="6.2448">
        <ele>2315.47</ele>
        <time>2016-09-08T09:05:17Z</time>
      </trkpt>
      <trkpt lat="44.84067" lon="6.24475">
        <ele>2316.43</ele>
        <time>2016-09-08T09:05:32Z</time>
      </trkpt>
      <trkpt lat="44.84069" lon="6.24472">
        <ele>2317.4</ele>
        <time>2016-09-08T09:05:48Z</time>
      </trkpt>
      <trkpt lat="44.84067" lon="6.2447">
        <ele>2317.4</ele>
        <time>2016-09-08T09:06:25Z</time>
      </trkpt>
      <trkpt lat="44.84068" lon="6.24473">
        <ele>2317.4</ele>
        <time>2016-09-08T09:06:56Z</time>
      </trkpt>
      <trkpt lat="44.84068" lon="6.24469">
        <ele>2317.88</ele>
        <time>2016-09-08T09:07:27Z</time>
      </trkpt>
      <trkpt lat="44.84074" lon="6.24467">
        <ele>2320.76</ele>
        <time>2016-09-08T09:07:43Z</time>
      </trkpt>
      <trkpt lat="44.84076" lon="6.24461">
        <ele>2322.68</ele>
        <time>2016-09-08T09:07:57Z</time>
      </trkpt>
      <trkpt lat="44.84077" lon="6.24454">
        <ele>2324.12</ele>
        <time>2016-09-08T09:08:10Z</time>
      </trkpt>
      <trkpt lat="44.84079" lon="6.24453">
        <ele>2324.61</ele>
        <time>2016-09-08T09:08:27Z</time>
      </trkpt>
      <trkpt lat="44.84081" lon="6.24448">
        <ele>2327.01</ele>
        <time>2016-09-08T09:08:43Z</time>
      </trkpt>
      <trkpt lat="44.84086" lon="6.24444">
        <ele>2328.93</ele>
        <time>2016-09-08T09:08:59Z</time>
      </trkpt>
      <trkpt lat="44.8409" lon="6.24439">
        <ele>2331.33</ele>
        <time>2016-09-08T09:09:15Z</time>
      </trkpt>
      <trkpt lat="44.84091" lon="6.24432">
        <ele>2332.3</ele>
        <time>2016-09-08T09:09:28Z</time>
      </trkpt>
      <trkpt lat="44.84091" lon="6.24426">
        <ele>2334.22</ele>
        <time>2016-09-08T09:09:44Z</time>
      </trkpt>
      <trkpt lat="44.84094" lon="6.24418">
        <ele>2336.14</ele>
        <time>2016-09-08T09:10:00Z</time>
      </trkpt>
      <trkpt lat="44.84096" lon="6.24407">
        <ele>2337.58</ele>
        <time>2016-09-08T09:10:16Z</time>
      </trkpt>
      <trkpt lat="44.84097" lon="6.24397">
        <ele>2338.54</ele>
        <time>2016-09-08T09:10:29Z</time>
      </trkpt>
      <trkpt lat="44.84099" lon="6.24386">
        <ele>2340.95</ele>
        <time>2016-09-08T09:10:47Z</time>
      </trkpt>
      <trkpt lat="44.84102" lon="6.24374">
        <ele>2342.39</ele>
        <time>2016-09-08T09:11:05Z</time>
      </trkpt>
      <trkpt lat="44.84104" lon="6.24367">
        <ele>2344.31</ele>
        <time>2016-09-08T09:11:19Z</time>
      </trkpt>
      <trkpt lat="44.84103" lon="6.24362">
        <ele>2345.27</ele>
        <time>2016-09-08T09:11:37Z</time>
      </trkpt>
      <trkpt lat="44.84104" lon="6.24361">
        <ele>2346.23</ele>
        <time>2016-09-08T09:11:54Z</time>
      </trkpt>
      <trkpt lat="44.84104" lon="6.24359">
        <ele>2345.75</ele>
        <time>2016-09-08T09:12:19Z</time>
      </trkpt>
      <trkpt lat="44.84106" lon="6.24355">
        <ele>2346.72</ele>
        <time>2016-09-08T09:12:37Z</time>
      </trkpt>
      <trkpt lat="44.84103" lon="6.24354">
        <ele>2347.2</ele>
        <time>2016-09-08T09:13:11Z</time>
      </trkpt>
      <trkpt lat="44.84103" lon="6.24356">
        <ele>2347.2</ele>
        <time>2016-09-08T09:13:48Z</time>
      </trkpt>
      <trkpt lat="44.84103" lon="6.24358">
        <ele>2347.2</ele>
        <time>2016-09-08T09:14:14Z</time>
      </trkpt>
      <trkpt lat="44.84104" lon="6.24359">
        <ele>2347.68</ele>
        <time>2016-09-08T09:14:53Z</time>
      </trkpt>
      <trkpt lat="44.84109" lon="6.24348">
        <ele>2348.64</ele>
        <time>2016-09-08T09:15:28Z</time>
      </trkpt>
      <trkpt lat="44.84116" lon="6.24331">
        <ele>2349.12</ele>
        <time>2016-09-08T09:15:46Z</time>
      </trkpt>
      <trkpt lat="44.84115" lon="6.24323">
        <ele>2349.6</ele>
        <time>2016-09-08T09:15:59Z</time>
      </trkpt>
      <trkpt lat="44.84114" lon="6.24312">
        <ele>2351.52</ele>
        <time>2016-09-08T09:16:13Z</time>
      </trkpt>
      <trkpt lat="44.84118" lon="6.24302">
        <ele>2352.48</ele>
        <time>2016-09-08T09:16:25Z</time>
      </trkpt>
      <trkpt lat="44.84121" lon="6.24293">
        <ele>2352.96</ele>
        <time>2016-09-08T09:16:40Z</time>
      </trkpt>
      <trkpt lat="44.8412" lon="6.24286">
        <ele>2351.52</ele>
        <time>2016-09-08T09:16:54Z</time>
      </trkpt>
      <trkpt lat="44.84124" lon="6.24282">
        <ele>2353.44</ele>
        <time>2016-09-08T09:17:06Z</time>
      </trkpt>
      <trkpt lat="44.84126" lon="6.24273">
        <ele>2355.37</ele>
        <time>2016-09-08T09:17:22Z</time>
      </trkpt>
      <trkpt lat="44.84129" lon="6.24264">
        <ele>2357.77</ele>
        <time>2016-09-08T09:17:39Z</time>
      </trkpt>
      <trkpt lat="44.84135" lon="6.24263">
        <ele>2361.14</ele>
        <time>2016-09-08T09:17:53Z</time>
      </trkpt>
      <trkpt lat="44.84136" lon="6.24257">
        <ele>2361.62</ele>
        <time>2016-09-08T09:18:07Z</time>
      </trkpt>
      <trkpt lat="44.84136" lon="6.24251">
        <ele>2363.06</ele>
        <time>2016-09-08T09:18:23Z</time>
      </trkpt>
      <trkpt lat="44.84137" lon="6.24245">
        <ele>2364.5</ele>
        <time>2016-09-08T09:18:41Z</time>
      </trkpt>
      <trkpt lat="44.84137" lon="6.24241">
        <ele>2365.94</ele>
        <time>2016-09-08T09:18:54Z</time>
      </trkpt>
      <trkpt lat="44.84137" lon="6.24235">
        <ele>2367.86</ele>
        <time>2016-09-08T09:19:09Z</time>
      </trkpt>
      <trkpt lat="44.84137" lon="6.24234">
        <ele>2369.31</ele>
        <time>2016-09-08T09:19:28Z</time>
      </trkpt>
      <trkpt lat="44.84138" lon="6.24229">
        <ele>2370.75</ele>
        <time>2016-09-08T09:19:45Z</time>
      </trkpt>
      <trkpt lat="44.8414" lon="6.24228">
        <ele>2373.15</ele>
        <time>2016-09-08T09:19:59Z</time>
      </trkpt>
      <trkpt lat="44.84144" lon="6.2423">
        <ele>2375.07</ele>
        <time>2016-09-08T09:20:13Z</time>
      </trkpt>
      <trkpt lat="44.84144" lon="6.24227">
        <ele>2376.52</ele>
        <time>2016-09-08T09:20:27Z</time>
      </trkpt>
      <trkpt lat="44.84148" lon="6.24219">
        <ele>2378.92</ele>
        <time>2016-09-08T09:20:43Z</time>
      </trkpt>
      <trkpt lat="44.84153" lon="6.24224">
        <ele>2381.32</ele>
        <time>2016-09-08T09:20:58Z</time>
      </trkpt>
      <trkpt lat="44.84153" lon="6.24224">
        <ele>2380.36</ele>
        <time>2016-09-08T09:21:27Z</time>
      </trkpt>
      <trkpt lat="44.84149" lon="6.24222">
        <ele>2381.32</ele>
        <time>2016-09-08T09:21:54Z</time>
      </trkpt>
      <trkpt lat="44.84154" lon="6.24215">
        <ele>2382.76</ele>
        <time>2016-09-08T09:22:21Z</time>
      </trkpt>
      <trkpt lat="44.84159" lon="6.24203">
        <ele>2383.73</ele>
        <time>2016-09-08T09:22:35Z</time>
      </trkpt>
      <trkpt lat="44.84163" lon="6.24193">
        <ele>2385.65</ele>
        <time>2016-09-08T09:22:50Z</time>
      </trkpt>
      <trkpt lat="44.84167" lon="6.24176">
        <ele>2387.57</ele>
        <time>2016-09-08T09:23:07Z</time>
      </trkpt>
      <trkpt lat="44.84173" lon="6.24165">
        <ele>2389.49</ele>
        <time>2016-09-08T09:23:23Z</time>
      </trkpt>
      <trkpt lat="44.84179" lon="6.24154">
        <ele>2391.42</ele>
        <time>2016-09-08T09:23:40Z</time>
      </trkpt>
      <trkpt lat="44.8418" lon="6.24146">
        <ele>2392.86</ele>
        <time>2016-09-08T09:23:54Z</time>
      </trkpt>
      <trkpt lat="44.84183" lon="6.24145">
        <ele>2394.3</ele>
        <time>2016-09-08T09:24:08Z</time>
      </trkpt>
      <trkpt lat="44.84182" lon="6.24134">
        <ele>2395.26</ele>
        <time>2016-09-08T09:24:24Z</time>
      </trkpt>
      <trkpt lat="44.84182" lon="6.2413">
        <ele>2395.74</ele>
        <time>2016-09-08T09:24:42Z</time>
      </trkpt>
      <trkpt lat="44.84184" lon="6.24122">
        <ele>2396.7</ele>
        <time>2016-09-08T09:24:56Z</time>
      </trkpt>
      <trkpt lat="44.84185" lon="6.24112">
        <ele>2399.59</ele>
        <time>2016-09-08T09:25:13Z</time>
      </trkpt>
      <trkpt lat="44.84183" lon="6.24101">
        <ele>2401.51</ele>
        <time>2016-09-08T09:25:29Z</time>
      </trkpt>
      <trkpt lat="44.84184" lon="6.24089">
        <ele>2402.95</ele>
        <time>2016-09-08T09:25:44Z</time>
      </trkpt>
      <trkpt lat="44.84183" lon="6.24083">
        <ele>2404.88</ele>
        <time>2016-09-08T09:26:00Z</time>
      </trkpt>
      <trkpt lat="44.84182" lon="6.24077">
        <ele>2406.32</ele>
        <time>2016-09-08T09:26:13Z</time>
      </trkpt>
      <trkpt lat="44.84184" lon="6.24072">
        <ele>2407.28</ele>
        <time>2016-09-08T09:26:31Z</time>
      </trkpt>
      <trkpt lat="44.84183" lon="6.24067">
        <ele>2409.2</ele>
        <time>2016-09-08T09:26:45Z</time>
      </trkpt>
      <trkpt lat="44.84185" lon="6.24057">
        <ele>2411.6</ele>
        <time>2016-09-08T09:27:00Z</time>
      </trkpt>
      <trkpt lat="44.84187" lon="6.24051">
        <ele>2414.01</ele>
        <time>2016-09-08T09:27:18Z</time>
      </trkpt>
      <trkpt lat="44.84187" lon="6.24041">
        <ele>2415.45</ele>
        <time>2016-09-08T09:27:31Z</time>
      </trkpt>
      <trkpt lat="44.84186" lon="6.24025">
        <ele>2416.41</ele>
        <time>2016-09-08T09:27:49Z</time>
      </trkpt>
      <trkpt lat="44.84187" lon="6.24006">
        <ele>2417.85</ele>
        <time>2016-09-08T09:28:09Z</time>
      </trkpt>
      <trkpt lat="44.84187" lon="6.23989">
        <ele>2419.3</ele>
        <time>2016-09-08T09:28:26Z</time>
      </trkpt>
      <trkpt lat="44.84189" lon="6.23978">
        <ele>2421.22</ele>
        <time>2016-09-08T09:28:40Z</time>
      </trkpt>
      <trkpt lat="44.8419" lon="6.23968">
        <ele>2423.62</ele>
        <time>2016-09-08T09:28:56Z</time>
      </trkpt>
      <trkpt lat="44.84187" lon="6.23959">
        <ele>2424.58</ele>
        <time>2016-09-08T09:29:09Z</time>
      </trkpt>
      <trkpt lat="44.84187" lon="6.23952">
        <ele>2426.02</ele>
        <time>2016-09-08T09:29:22Z</time>
      </trkpt>
      <trkpt lat="44.84184" lon="6.23945">
        <ele>2427.47</ele>
        <time>2016-09-08T09:29:36Z</time>
      </trkpt>
      <trkpt lat="44.8418" lon="6.23938">
        <ele>2428.91</ele>
        <time>2016-09-08T09:29:52Z</time>
      </trkpt>
      <trkpt lat="44.84176" lon="6.23934">
        <ele>2429.87</ele>
        <time>2016-09-08T09:30:05Z</time>
      </trkpt>
      <trkpt lat="44.84173" lon="6.23926">
        <ele>2430.83</ele>
        <time>2016-09-08T09:30:23Z</time>
      </trkpt>
      <trkpt lat="44.84169" lon="6.23919">
        <ele>2432.75</ele>
        <time>2016-09-08T09:30:38Z</time>
      </trkpt>
      <trkpt lat="44.84165" lon="6.23912">
        <ele>2434.2</ele>
        <time>2016-09-08T09:30:54Z</time>
      </trkpt>
      <trkpt lat="44.84164" lon="6.23905">
        <ele>2436.6</ele>
        <time>2016-09-08T09:31:09Z</time>
      </trkpt>
      <trkpt lat="44.84161" lon="6.239">
        <ele>2437.56</ele>
        <time>2016-09-08T09:31:24Z</time>
      </trkpt>
      <trkpt lat="44.84157" lon="6.23898">
        <ele>2439</ele>
        <time>2016-09-08T09:31:38Z</time>
      </trkpt>
      <trkpt lat="44.84154" lon="6.23893">
        <ele>2440.44</ele>
        <time>2016-09-08T09:31:54Z</time>
      </trkpt>
      <trkpt lat="44.84152" lon="6.23886">
        <ele>2441.41</ele>
        <time>2016-09-08T09:32:13Z</time>
      </trkpt>
      <trkpt lat="44.8415" lon="6.23888">
        <ele>2443.33</ele>
        <time>2016-09-08T09:32:23Z</time>
      </trkpt>
      <trkpt lat="44.84141" lon="6.23883">
        <ele>2444.29</ele>
        <time>2016-09-08T09:32:39Z</time>
      </trkpt>
      <trkpt lat="44.84136" lon="6.23876">
        <ele>2445.25</ele>
        <time>2016-09-08T09:32:56Z</time>
      </trkpt>
      <trkpt lat="44.84131" lon="6.23874">
        <ele>2443.81</ele>
        <time>2016-09-08T09:33:10Z</time>
      </trkpt>
      <trkpt lat="44.84123" lon="6.23879">
        <ele>2441.89</ele>
        <time>2016-09-08T09:33:28Z</time>
      </trkpt>
      <trkpt lat="44.84119" lon="6.23887">
        <ele>2440.92</ele>
        <time>2016-09-08T09:33:42Z</time>
      </trkpt>
      <trkpt lat="44.84114" lon="6.23893">
        <ele>2439.48</ele>
        <time>2016-09-08T09:33:59Z</time>
      </trkpt>
      <trkpt lat="44.84112" lon="6.23892">
        <ele>2438.52</ele>
        <time>2016-09-08T09:34:12Z</time>
      </trkpt>
      <trkpt lat="44.84105" lon="6.23899">
        <ele>2436.12</ele>
        <time>2016-09-08T09:34:30Z</time>
      </trkpt>
      <trkpt lat="44.84096" lon="6.23906">
        <ele>2436.12</ele>
        <time>2016-09-08T09:34:45Z</time>
      </trkpt>
      <trkpt lat="44.84089" lon="6.23912">
        <ele>2435.64</ele>
        <time>2016-09-08T09:35:00Z</time>
      </trkpt>
      <trkpt lat="44.84084" lon="6.23917">
        <ele>2433.71</ele>
        <time>2016-09-08T09:35:14Z</time>
      </trkpt>
      <trkpt lat="44.84078" lon="6.23918">
        <ele>2433.23</ele>
        <time>2016-09-08T09:35:29Z</time>
      </trkpt>
      <trkpt lat="44.84073" lon="6.23914">
        <ele>2431.31</ele>
        <time>2016-09-08T09:35:43Z</time>
      </trkpt>
      <trkpt lat="44.8407" lon="6.23911">
        <ele>2431.31</ele>
        <time>2016-09-08T09:35:58Z</time>
      </trkpt>
      <trkpt lat="44.84071" lon="6.2391">
        <ele>2431.79</ele>
        <time>2016-09-08T09:36:24Z</time>
      </trkpt>
      <trkpt lat="44.84071" lon="6.23916">
        <ele>2431.31</ele>
        <time>2016-09-08T09:36:56Z</time>
      </trkpt>
      <trkpt lat="44.84065" lon="6.23909">
        <ele>2430.35</ele>
        <time>2016-09-08T09:37:15Z</time>
      </trkpt>
      <trkpt lat="44.84057" lon="6.23907">
        <ele>2429.87</ele>
        <time>2016-09-08T09:37:30Z</time>
      </trkpt>
      <trkpt lat="44.84049" lon="6.23906">
        <ele>2430.83</ele>
        <time>2016-09-08T09:37:43Z</time>
      </trkpt>
      <trkpt lat="44.84046" lon="6.23901">
        <ele>2430.83</ele>
        <time>2016-09-08T09:37:55Z</time>
      </trkpt>
      <trkpt lat="44.84044" lon="6.23902">
        <ele>2428.43</ele>
        <time>2016-09-08T09:38:11Z</time>
      </trkpt>
      <trkpt lat="44.8404" lon="6.23898">
        <ele>2426.5</ele>
        <time>2016-09-08T09:38:25Z</time>
      </trkpt>
      <trkpt lat="44.84037" lon="6.2389">
        <ele>2424.1</ele>
        <time>2016-09-08T09:38:40Z</time>
      </trkpt>
      <trkpt lat="44.84034" lon="6.23883">
        <ele>2422.18</ele>
        <time>2016-09-08T09:38:52Z</time>
      </trkpt>
      <trkpt lat="44.84031" lon="6.23875">
        <ele>2421.22</ele>
        <time>2016-09-08T09:39:01Z</time>
      </trkpt>
      <trkpt lat="44.84028" lon="6.23862">
        <ele>2423.14</ele>
        <time>2016-09-08T09:39:17Z</time>
      </trkpt>
      <trkpt lat="44.84027" lon="6.23853">
        <ele>2425.06</ele>
        <time>2016-09-08T09:39:32Z</time>
      </trkpt>
      <trkpt lat="44.84025" lon="6.23846">
        <ele>2427.47</ele>
        <time>2016-09-08T09:39:47Z</time>
      </trkpt>
      <trkpt lat="44.84021" lon="6.23842">
        <ele>2428.43</ele>
        <time>2016-09-08T09:40:00Z</time>
      </trkpt>
      <trkpt lat="44.84021" lon="6.23835">
        <ele>2430.35</ele>
        <time>2016-09-08T09:40:18Z</time>
      </trkpt>
      <trkpt lat="44.8402" lon="6.23826">
        <ele>2430.83</ele>
        <time>2016-09-08T09:40:34Z</time>
      </trkpt>
      <trkpt lat="44.84019" lon="6.2382">
        <ele>2432.27</ele>
        <time>2016-09-08T09:40:46Z</time>
      </trkpt>
      <trkpt lat="44.84015" lon="6.23813">
        <ele>2434.2</ele>
        <time>2016-09-08T09:41:01Z</time>
      </trkpt>
      <trkpt lat="44.84012" lon="6.23808">
        <ele>2435.64</ele>
        <time>2016-09-08T09:41:16Z</time>
      </trkpt>
      <trkpt lat="44.84007" lon="6.23805">
        <ele>2437.56</ele>
        <time>2016-09-08T09:41:31Z</time>
      </trkpt>
      <trkpt lat="44.84005" lon="6.23799">
        <ele>2439.48</ele>
        <time>2016-09-08T09:41:47Z</time>
      </trkpt>
      <trkpt lat="44.84002" lon="6.23793">
        <ele>2440.92</ele>
        <time>2016-09-08T09:42:01Z</time>
      </trkpt>
      <trkpt lat="44.84003" lon="6.23786">
        <ele>2442.85</ele>
        <time>2016-09-08T09:42:16Z</time>
      </trkpt>
      <trkpt lat="44.83998" lon="6.23774">
        <ele>2442.85</ele>
        <time>2016-09-08T09:42:32Z</time>
      </trkpt>
      <trkpt lat="44.83997" lon="6.23762">
        <ele>2444.29</ele>
        <time>2016-09-08T09:42:46Z</time>
      </trkpt>
      <trkpt lat="44.83995" lon="6.23754">
        <ele>2446.21</ele>
        <time>2016-09-08T09:43:02Z</time>
      </trkpt>
      <trkpt lat="44.83992" lon="6.23744">
        <ele>2448.13</ele>
        <time>2016-09-08T09:43:17Z</time>
      </trkpt>
      <trkpt lat="44.83997" lon="6.23733">
        <ele>2450.06</ele>
        <time>2016-09-08T09:43:32Z</time>
      </trkpt>
      <trkpt lat="44.83998" lon="6.23721">
        <ele>2451.98</ele>
        <time>2016-09-08T09:43:48Z</time>
      </trkpt>
      <trkpt lat="44.84001" lon="6.23714">
        <ele>2453.42</ele>
        <time>2016-09-08T09:44:02Z</time>
      </trkpt>
      <trkpt lat="44.83997" lon="6.23709">
        <ele>2455.34</ele>
        <time>2016-09-08T09:44:17Z</time>
      </trkpt>
      <trkpt lat="44.83994" lon="6.23703">
        <ele>2456.79</ele>
        <time>2016-09-08T09:44:31Z</time>
      </trkpt>
      <trkpt lat="44.83995" lon="6.23697">
        <ele>2459.19</ele>
        <time>2016-09-08T09:44:45Z</time>
      </trkpt>
      <trkpt lat="44.83996" lon="6.23688">
        <ele>2461.59</ele>
        <time>2016-09-08T09:45:01Z</time>
      </trkpt>
      <trkpt lat="44.83996" lon="6.2369">
        <ele>2462.07</ele>
        <time>2016-09-08T09:45:17Z</time>
      </trkpt>
      <trkpt lat="44.83997" lon="6.23689">
        <ele>2462.55</ele>
        <time>2016-09-08T09:45:38Z</time>
      </trkpt>
      <trkpt lat="44.83997" lon="6.23689">
        <ele>2462.55</ele>
        <time>2016-09-08T09:46:03Z</time>
      </trkpt>
      <trkpt lat="44.84001" lon="6.23685">
        <ele>2464</ele>
        <time>2016-09-08T09:46:22Z</time>
      </trkpt>
      <trkpt lat="44.84003" lon="6.23677">
        <ele>2466.88</ele>
        <time>2016-09-08T09:46:38Z</time>
      </trkpt>
      <trkpt lat="44.8401" lon="6.23679">
        <ele>2469.76</ele>
        <time>2016-09-08T09:46:55Z</time>
      </trkpt>
      <trkpt lat="44.84013" lon="6.23683">
        <ele>2471.21</ele>
        <time>2016-09-08T09:47:08Z</time>
      </trkpt>
      <trkpt lat="44.84014" lon="6.23676">
        <ele>2473.61</ele>
        <time>2016-09-08T09:47:23Z</time>
      </trkpt>
      <trkpt lat="44.84013" lon="6.23671">
        <ele>2475.05</ele>
        <time>2016-09-08T09:47:40Z</time>
      </trkpt>
      <trkpt lat="44.84016" lon="6.23663">
        <ele>2476.97</ele>
        <time>2016-09-08T09:47:53Z</time>
      </trkpt>
      <trkpt lat="44.84021" lon="6.23672">
        <ele>2479.86</ele>
        <time>2016-09-08T09:48:06Z</time>
      </trkpt>
      <trkpt lat="44.84023" lon="6.23682">
        <ele>2480.34</ele>
        <time>2016-09-08T09:48:18Z</time>
      </trkpt>
      <trkpt lat="44.84026" lon="6.23686">
        <ele>2482.74</ele>
        <time>2016-09-08T09:48:34Z</time>
      </trkpt>
      <trkpt lat="44.84029" lon="6.23685">
        <ele>2485.15</ele>
        <time>2016-09-08T09:48:50Z</time>
      </trkpt>
      <trkpt lat="44.84032" lon="6.23679">
        <ele>2487.07</ele>
        <time>2016-09-08T09:49:05Z</time>
      </trkpt>
      <trkpt lat="44.84039" lon="6.2368">
        <ele>2488.51</ele>
        <time>2016-09-08T09:49:21Z</time>
      </trkpt>
      <trkpt lat="44.84045" lon="6.23681">
        <ele>2490.43</ele>
        <time>2016-09-08T09:49:34Z</time>
      </trkpt>
      <trkpt lat="44.84051" lon="6.23677">
        <ele>2491.87</ele>
        <time>2016-09-08T09:49:48Z</time>
      </trkpt>
      <trkpt lat="44.84056" lon="6.23674">
        <ele>2493.8</ele>
        <time>2016-09-08T09:50:04Z</time>
      </trkpt>
      <trkpt lat="44.84065" lon="6.23672">
        <ele>2495.24</ele>
        <time>2016-09-08T09:50:20Z</time>
      </trkpt>
      <trkpt lat="44.84067" lon="6.23665">
        <ele>2497.64</ele>
        <time>2016-09-08T09:50:34Z</time>
      </trkpt>
      <trkpt lat="44.84069" lon="6.23657">
        <ele>2499.08</ele>
        <time>2016-09-08T09:50:48Z</time>
      </trkpt>
      <trkpt lat="44.8408" lon="6.23662">
        <ele>2501.01</ele>
        <time>2016-09-08T09:51:07Z</time>
      </trkpt>
      <trkpt lat="44.84087" lon="6.23665">
        <ele>2503.41</ele>
        <time>2016-09-08T09:51:23Z</time>
      </trkpt>
      <trkpt lat="44.8409" lon="6.23675">
        <ele>2505.81</ele>
        <time>2016-09-08T09:51:40Z</time>
      </trkpt>
      <trkpt lat="44.84093" lon="6.23679">
        <ele>2507.74</ele>
        <time>2016-09-08T09:51:56Z</time>
      </trkpt>
      <trkpt lat="44.84098" lon="6.23681">
        <ele>2510.14</ele>
        <time>2016-09-08T09:52:08Z</time>
      </trkpt>
      <trkpt lat="44.84101" lon="6.23691">
        <ele>2511.1</ele>
        <time>2016-09-08T09:52:24Z</time>
      </trkpt>
      <trkpt lat="44.84105" lon="6.23692">
        <ele>2512.54</ele>
        <time>2016-09-08T09:52:36Z</time>
      </trkpt>
      <trkpt lat="44.84114" lon="6.237">
        <ele>2513.5</ele>
        <time>2016-09-08T09:52:54Z</time>
      </trkpt>
      <trkpt lat="44.84119" lon="6.23708">
        <ele>2514.47</ele>
        <time>2016-09-08T09:53:08Z</time>
      </trkpt>
      <trkpt lat="44.84122" lon="6.23705">
        <ele>2516.87</ele>
        <time>2016-09-08T09:53:23Z</time>
      </trkpt>
      <trkpt lat="44.84127" lon="6.23705">
        <ele>2518.79</ele>
        <time>2016-09-08T09:53:37Z</time>
      </trkpt>
      <trkpt lat="44.84131" lon="6.23698">
        <ele>2520.71</ele>
        <time>2016-09-08T09:53:51Z</time>
      </trkpt>
      <trkpt lat="44.8414" lon="6.23698">
        <ele>2522.16</ele>
        <time>2016-09-08T09:54:08Z</time>
      </trkpt>
      <trkpt lat="44.84144" lon="6.23694">
        <ele>2523.6</ele>
        <time>2016-09-08T09:54:21Z</time>
      </trkpt>
      <trkpt lat="44.84151" lon="6.23694">
        <ele>2526.48</ele>
        <time>2016-09-08T09:54:38Z</time>
      </trkpt>
      <trkpt lat="44.84154" lon="6.23694">
        <ele>2528.89</ele>
        <time>2016-09-08T09:54:54Z</time>
      </trkpt>
      <trkpt lat="44.84155" lon="6.23687">
        <ele>2530.81</ele>
        <time>2016-09-08T09:55:09Z</time>
      </trkpt>
      <trkpt lat="44.84156" lon="6.2368">
        <ele>2533.69</ele>
        <time>2016-09-08T09:55:24Z</time>
      </trkpt>
      <trkpt lat="44.84156" lon="6.2367">
        <ele>2536.1</ele>
        <time>2016-09-08T09:55:42Z</time>
      </trkpt>
      <trkpt lat="44.84213" lon="6.23462">
        <ele>2432.8</ele>
      </trkpt>
      <trkpt lat="44.84287" lon="6.23364">
        <ele>2462.8</ele>
      </trkpt>
      <trkpt lat="44.84366" lon="6.23315">
        <ele>2502.5</ele>
      </trkpt>
      <trkpt lat="44.84381" lon="6.23483">
        <ele>2519</ele>
      </trkpt>
      <trkpt lat="44.84473" lon="6.23483">
        <ele>2540.9</ele>
      </trkpt>
      <trkpt lat="44.84475" lon="6.23615">
        <ele>2620.9</ele>
      </trkpt>
      <trkpt lat="44.84599" lon="6.23587">
        <ele>2675.9</ele>
      </trkpt>
      <trkpt lat="44.84693" lon="6.23817">
        <ele>2773.5</ele>
      </trkpt>
      <trkpt lat="44.84888" lon="6.23709">
        <ele>2839.6</ele>
      </trkpt>
      <trkpt lat="44.84935" lon="6.23804">
        <ele>2872.4</ele>
      </trkpt>
      <trkpt lat="44.85009" lon="6.23713">
        <ele>2900.7</ele>
      </trkpt>
      <trkpt lat="44.85108" lon="6.23971">
        <ele>2953.2</ele>
      </trkpt>
      <trkpt lat="44.85155" lon="6.23706">
        <ele>2962.6</ele>
      </trkpt>
      <trkpt lat="44.85192" lon="6.23786">
        <ele>2976.3</ele>
      </trkpt>
      <trkpt lat="44.8518" lon="6.2388">
        <ele>2979.8</ele>
      </trkpt>
      <trkpt lat="44.8518" lon="6.23953">
        <ele>2979.9</ele>
      </trkpt>
      <trkpt lat="44.8517" lon="6.24055">
        <ele>2987.1</ele>
      </trkpt>
      <trkpt lat="44.85182" lon="6.24194">
        <ele>2991.4</ele>
      </trkpt>
      <trkpt lat="44.85182" lon="6.24382">
        <ele>3007.7</ele>
      </trkpt>
      <trkpt lat="44.85177" lon="6.24536">
        <ele>3052.7</ele>
      </trkpt>
      <trkpt lat="44.85172" lon="6.247">
        <ele>3045.6</ele>
      </trkpt>
    </trkseg>
  </trk>
</gpx>